DEPLD / D-EPLD 7700 Squawk Report (18th of March, 2019)

Time Lat Lon Altitude Heading Speed Vertical Rate
2019-03-18 18:10:10 GMT 45.384430 -0.902972 975 255 151 -640
2019-03-18 18:09:28 GMT 45.397156 -0.864977 1,450 232 159 -640
2019-03-18 18:09:18 GMT 45.402008 -0.856018 1,550 234 160 -640
2019-03-18 18:09:07 GMT 45.406631 -0.847059 1,675 236 161 -832
2019-03-18 18:08:54 GMT 45.412361 -0.835296 1,850 236 161 -640
2019-03-18 18:07:56 GMT 45.436798 -0.783691 2,750 241 159 -512
2019-03-18 18:07:50 GMT 45.438892 -0.778355 2,775 242 161 -320
2019-03-18 18:07:36 GMT 45.443783 -0.765158 2,950 245 166 -960
2019-03-18 18:07:27 GMT 45.446808 -0.755980 3,100 245 166 -1280
2019-03-18 18:07:17 GMT 45.450115 -0.746266 3,350 245 165 -1152
2019-03-18 18:07:01 GMT 45.455887 -0.730390 3,525 243 166 -832
2019-03-18 18:06:33 GMT 45.468361 -0.705001 4,000 231 176 -960
2019-03-18 18:06:23 GMT 45.473904 -0.695622 4,200 232 172 -1600
2019-03-18 18:06:12 GMT 45.478092 -0.685440 4,475 251 161 -1216
2019-03-18 18:06:01 GMT 45.480606 -0.674613 4,650 252 159 -704
2019-03-18 18:05:51 GMT 45.483074 -0.664271 4,750 252 160 -640
2019-03-18 18:05:40 GMT 45.485584 -0.653285 4,900 252 160 -768
2019-03-18 18:05:29 GMT 45.488098 -0.642499 5,025 252 160 -768
2019-03-18 18:05:18 GMT 45.490616 -0.631647 5,175 253 160 -768
2019-03-18 18:05:06 GMT 45.493240 -0.620074 5,350 253 160 -768
2019-03-18 18:04:55 GMT 45.495758 -0.608956 5,475 253 160 -832
2019-03-18 18:04:45 GMT 45.498184 -0.598363 5,625 253 160 -832
2019-03-18 18:04:34 GMT 45.500576 -0.587836 5,750 252 160 -704
2019-03-18 18:04:24 GMT 45.503044 -0.576916 5,925 253 161 -832
2019-03-18 18:04:13 GMT 45.505463 -0.566198 6,075 253 162 -960
2019-03-18 18:04:02 GMT 45.508072 -0.554609 6,225 253 162 -768
2019-03-18 18:03:52 GMT 45.510399 -0.544225 6,375 252 163 -896
2019-03-18 18:03:41 GMT 45.512867 -0.533574 6,525 252 164 -896
2019-03-18 18:03:29 GMT 45.515762 -0.521262 6,700 252 164 -832
2019-03-18 18:03:19 GMT 45.518082 -0.511266 6,875 252 164 -896
2019-03-18 18:03:09 GMT 45.520706 -0.500140 7,025 252 164 -960
2019-03-18 18:02:58 GMT 45.523453 -0.488892 7,225 251 165 -1088
2019-03-18 18:02:51 GMT 45.525154 -0.482059 7,325 251 164 -1024
2019-03-18 18:02:47 GMT 45.526199 -0.478036 7,400 251 164 -1024
2019-03-18 18:02:35 GMT 45.529346 -0.465713 7,625 250 164 -1088
2019-03-18 18:02:25 GMT 45.532047 -0.455330 7,800 250 162 -1088
2019-03-18 18:02:21 GMT 45.533066 -0.451224 7,900 250 160 -1088
2019-03-18 18:02:12 GMT 45.535217 -0.442984 8,025 250 160 -1088
2019-03-18 18:02:00 GMT 45.538330 -0.430878 8,250 251 155 -1088
2019-03-18 18:01:52 GMT 45.540115 -0.423235 8,650 254 151 -1024
2019-03-18 18:01:41 GMT 45.542286 -0.413193 8,600 253 146 -832
2019-03-18 18:01:30 GMT 45.544521 -0.403011 8,675 253 146 -256
2019-03-18 18:01:18 GMT 45.546936 -0.392158 8,700 253 144 64
2019-03-18 18:01:07 GMT 45.549225 -0.381842 8,700 253 145 0
2019-03-18 18:00:55 GMT 45.551552 -0.371338 8,700 253 145 0
2019-03-18 18:00:50 GMT 45.552807 -0.365639 8,725 253 147 -64
2019-03-18 18:00:45 GMT 45.553692 -0.361725 8,725 253 147 0
2019-03-18 18:00:42 GMT 45.554306 -0.358998 8,700 253 146 -64
2019-03-18 18:00:34 GMT 45.556000 -0.351629 8,700 253 148 0
2019-03-18 18:00:29 GMT 45.557098 -0.346538 8,700 253 148 0
2019-03-18 18:00:23 GMT 45.558254 -0.341537 8,700 253 148 64
2019-03-18 18:00:12 GMT 45.560535 -0.331238 8,700 253 149 -64
2019-03-18 18:00:07 GMT 45.561539 -0.326843 8,700 253 149 64
2019-03-18 18:00:00 GMT 45.563095 -0.319809 8,700 253 150 0
2019-03-18 17:59:57 GMT 45.563747 -0.316887 8,700 253 150 0
2019-03-18 17:59:51 GMT 45.565006 -0.311256 8,725 253 150 64
2019-03-18 17:59:47 GMT 45.565750 -0.307751 8,725 253 150 0
2019-03-18 17:59:40 GMT 45.567947 -0.297971 8,700 253 152 0
2019-03-18 17:59:37 GMT 45.567947 -0.297971 8,700 253 151 0
2019-03-18 17:59:29 GMT 45.569614 -0.290314 8,700 253 152 -64
2019-03-18 17:59:26 GMT 45.570145 -0.287989 8,725 253 152 -64
2019-03-18 17:59:18 GMT 45.571976 -0.279883 8,700 253 151 64
2019-03-18 17:59:15 GMT 45.572479 -0.277539 8,700 253 151 -64
2019-03-18 17:59:06 GMT 45.574688 -0.267586 8,700 253 151 0
2019-03-18 17:58:55 GMT 45.576828 -0.258112 8,700 253 150 64
2019-03-18 17:58:44 GMT 45.579018 -0.248154 8,700 253 151 64
2019-03-18 17:58:34 GMT 45.581299 -0.237854 8,700 253 151 64
2019-03-18 17:58:23 GMT 45.583626 -0.227486 8,700 253 152 0
2019-03-18 17:58:12 GMT 45.585953 -0.216911 8,725 253 151 0
2019-03-18 17:58:01 GMT 45.588188 -0.206818 8,700 253 150 0
2019-03-18 17:57:50 GMT 45.590607 -0.195900 8,700 253 149 128
2019-03-18 17:57:40 GMT 45.592655 -0.186630 8,700 253 149 64
2019-03-18 17:57:32 GMT 45.594406 -0.178863 8,700 253 149 0
2019-03-18 17:57:29 GMT 45.595032 -0.176056 8,700 253 149 64
2019-03-18 17:57:21 GMT 45.596603 -0.168881 8,700 253 149 -64
2019-03-18 17:57:18 GMT 45.597218 -0.166100 8,725 253 149 -64
2019-03-18 17:57:07 GMT 45.599442 -0.156153 8,700 253 149 -64
2019-03-18 17:56:59 GMT 45.601082 -0.148590 8,700 253 149 128
2019-03-18 17:56:56 GMT 45.601822 -0.145435 8,700 254 150 64
2019-03-18 17:56:51 GMT 45.603130 -0.139389 8,700 253 150 -64
2019-03-18 17:56:45 GMT 45.604107 -0.134857 8,700 253 151 0
2019-03-18 17:56:39 GMT 45.605347 -0.129290 8,700 253 151 0
2019-03-18 17:56:35 GMT 45.606262 -0.124936 8,700 253 152 64
2019-03-18 17:56:29 GMT 45.607506 -0.119339 8,725 254 151 0
2019-03-18 17:56:23 GMT 45.608719 -0.113777 8,725 253 152 0
2019-03-18 17:56:19 GMT 45.609463 -0.110275 8,700 253 152 0
2019-03-18 17:56:12 GMT 45.611023 -0.103097 8,700 253 153 0
2019-03-18 17:56:08 GMT 45.611790 -0.099701 8,700 253 154 0
2019-03-18 17:55:58 GMT 45.613861 -0.090168 8,700 253 153 0
2019-03-18 17:55:47 GMT 45.616196 -0.079517 8,725 253 154 0
2019-03-18 17:55:38 GMT 45.618259 -0.069969 8,700 254 154 0
2019-03-18 17:55:28 GMT 45.620449 -0.059875 8,700 253 154 0
2019-03-18 17:55:17 GMT 45.622498 -0.050331 8,700 254 154 0
2019-03-18 17:55:13 GMT 45.623520 -0.045620 8,700 253 154 64
2019-03-18 17:55:07 GMT 45.624664 -0.040194 8,725 254 154 0
2019-03-18 17:55:02 GMT 45.625717 -0.035237 8,700 254 154 0
2019-03-18 17:54:56 GMT 45.627106 -0.029045 8,700 253 154 0
2019-03-18 17:54:53 GMT 45.627731 -0.026059 8,700 253 154 0
2019-03-18 17:54:45 GMT 45.629246 -0.019020 8,700 253 155 64
2019-03-18 17:54:37 GMT 45.631248 -0.009956 8,700 253 154 64
2019-03-18 17:54:34 GMT 45.631668 -0.007896 8,725 253 155 -64
2019-03-18 17:54:28 GMT 45.633041 -0.001742 8,700 253 154 64
2019-03-18 17:54:23 GMT 45.633949 0.002335 8,700 253 154 0
2019-03-18 17:54:19 GMT 45.634834 0.006317 8,700 253 154 64
2019-03-18 17:54:15 GMT 45.635857 0.011055 8,700 253 154 -128
2019-03-18 17:54:07 GMT 45.637482 0.018288 8,700 253 154 0
2019-03-18 17:54:02 GMT 45.638466 0.022797 8,700 253 154 0
2019-03-18 17:53:58 GMT 45.639404 0.027131 8,700 253 154 0
2019-03-18 17:53:51 GMT 45.640915 0.033830 8,725 253 154 -64
2019-03-18 17:53:48 GMT 45.641537 0.036667 8,700 253 154 64
2019-03-18 17:53:41 GMT 45.643066 0.043677 8,700 253 153 64
2019-03-18 17:53:38 GMT 45.643707 0.046692 8,725 253 153 -64
2019-03-18 17:53:33 GMT 45.644760 0.051515 8,700 253 154 64
2019-03-18 17:53:27 GMT 45.646179 0.057879 8,700 254 154 0
2019-03-18 17:53:17 GMT 45.648006 0.066605 8,700 253 154 0
2019-03-18 17:53:05 GMT 45.650665 0.078780 8,700 254 154 0
2019-03-18 17:52:57 GMT 45.652267 0.086283 8,700 253 154 0
2019-03-18 17:52:47 GMT 45.654385 0.095787 8,725 253 153 0
2019-03-18 17:52:42 GMT 45.655518 0.101088 8,700 253 152 128
2019-03-18 17:52:39 GMT 45.656109 0.103821 8,700 254 152 64
2019-03-18 17:52:34 GMT 45.657131 0.108627 8,700 253 152 0
2019-03-18 17:52:30 GMT 45.657852 0.112074 8,700 253 152 0
2019-03-18 17:52:24 GMT 45.659088 0.117691 8,700 253 152 0
2019-03-18 17:52:21 GMT 45.659969 0.121742 8,700 253 152 0
2019-03-18 17:52:13 GMT 45.661415 0.128403 8,725 253 153 -64
2019-03-18 17:52:10 GMT 45.662251 0.132179 8,725 253 153 0
2019-03-18 17:52:02 GMT 45.663788 0.139389 8,700 253 153 -64
2019-03-18 17:51:54 GMT 45.665497 0.147110 8,700 253 153 -64
2019-03-18 17:51:50 GMT 45.666412 0.151397 8,700 253 153 0
2019-03-18 17:51:40 GMT 45.668381 0.160575 8,700 253 154 0
2019-03-18 17:51:29 GMT 45.670898 0.172365 8,700 254 154 -64
2019-03-18 17:51:19 GMT 45.672867 0.181412 8,700 254 154 0
2019-03-18 17:51:08 GMT 45.675018 0.191591 8,725 253 154 0
2019-03-18 17:50:56 GMT 45.677849 0.204895 8,700 254 155 0
2019-03-18 17:50:47 GMT 45.679413 0.212358 8,725 254 155 0
2019-03-18 17:50:34 GMT 45.682114 0.224952 8,700 254 154 64
2019-03-18 17:50:26 GMT 45.683945 0.233459 8,700 254 154 0
2019-03-18 17:50:15 GMT 45.686279 0.244178 8,700 253 154 0
2019-03-18 17:50:03 GMT 45.688694 0.255295 8,700 253 153 0
2019-03-18 17:49:52 GMT 45.690994 0.265883 8,700 253 152 64
2019-03-18 17:49:44 GMT 45.692734 0.274055 8,700 253 152 64
2019-03-18 17:49:41 GMT 45.693329 0.276936 8,725 253 153 0
2019-03-18 17:49:32 GMT 45.695072 0.284958 8,700 254 152 -64
2019-03-18 17:49:29 GMT 45.695816 0.288528 8,700 253 152 0
2019-03-18 17:49:21 GMT 45.697357 0.295492 8,700 254 152 -64
2019-03-18 17:49:18 GMT 45.697952 0.298373 8,700 254 152 0
2019-03-18 17:49:11 GMT 45.699402 0.305145 8,725 253 152 0
2019-03-18 17:49:07 GMT 45.700191 0.308990 8,700 253 153 -64
2019-03-18 17:49:03 GMT 45.701450 0.314758 8,700 254 153 -64
2019-03-18 17:48:56 GMT 45.702576 0.320077 8,700 254 153 0
2019-03-18 17:48:52 GMT 45.703629 0.325169 8,700 254 153 -64
2019-03-18 17:48:45 GMT 45.704819 0.330729 8,700 253 152 0
2019-03-18 17:48:41 GMT 45.705730 0.334808 8,700 254 152 64
2019-03-18 17:48:35 GMT 45.706848 0.340370 8,700 254 152 0
2019-03-18 17:48:29 GMT 45.708431 0.347649 8,700 254 152 64
2019-03-18 17:48:20 GMT 45.710014 0.355133 8,700 253 152 -64
2019-03-18 17:48:09 GMT 45.712372 0.366166 8,725 253 153 0
2019-03-18 17:48:02 GMT 45.713646 0.372162 8,700 254 153 64
2019-03-18 17:47:58 GMT 45.714390 0.375870 8,700 254 153 0
2019-03-18 17:47:48 GMT 45.716537 0.386196 8,700 254 154 0
2019-03-18 17:47:40 GMT 45.718140 0.393900 8,725 254 153 0
2019-03-18 17:47:37 GMT 45.718674 0.396400 8,700 254 153 0
2019-03-18 17:47:30 GMT 45.720154 0.403681 8,700 254 153 0
2019-03-18 17:47:27 GMT 45.720768 0.406563 8,700 254 153 64
2019-03-18 17:47:19 GMT 45.722305 0.413930 8,700 254 153 -64
2019-03-18 17:47:16 GMT 45.722992 0.417346 8,700 254 153 64
2019-03-18 17:47:06 GMT 45.725098 0.427596 8,700 254 152 0
2019-03-18 17:46:54 GMT 45.727249 0.438113 8,725 254 151 0
2019-03-18 17:46:44 GMT 45.729336 0.447968 8,725 254 151 64
2019-03-18 17:46:33 GMT 45.731552 0.458411 8,725 253 149 -128
2019-03-18 17:46:22 GMT 45.733757 0.468636 8,700 254 148 -64
2019-03-18 17:46:10 GMT 45.736130 0.479714 8,700 254 147 0
2019-03-18 17:46:02 GMT 45.737854 0.487793 8,700 253 146 64
2019-03-18 17:45:51 GMT 45.739948 0.497543 8,700 254 147 -64
2019-03-18 17:45:40 GMT 45.742134 0.507843 8,725 254 147 0
2019-03-18 17:45:29 GMT 45.744278 0.517662 8,700 254 147 0
2019-03-18 17:45:19 GMT 45.746429 0.527880 8,725 253 147 0
2019-03-18 17:45:08 GMT 45.748608 0.537918 8,700 253 148 0
2019-03-18 17:44:58 GMT 45.750824 0.548245 8,700 253 149 0
2019-03-18 17:44:46 GMT 45.752983 0.558174 8,700 253 149 -64
2019-03-18 17:44:35 GMT 45.755310 0.568748 8,700 253 148 64
2019-03-18 17:44:24 GMT 45.757500 0.579117 8,725 253 148 0
2019-03-18 17:44:15 GMT 45.759521 0.588304 8,700 254 148 64
2019-03-18 17:44:03 GMT 45.761780 0.598892 8,700 254 149 0
2019-03-18 17:43:53 GMT 45.763870 0.608602 8,700 253 149 0
2019-03-18 17:43:42 GMT 45.766109 0.619080 8,700 253 149 -64
2019-03-18 17:43:32 GMT 45.768219 0.629101 8,700 253 149 0
2019-03-18 17:43:21 GMT 45.770325 0.639016 8,700 254 149 0
2019-03-18 17:43:10 GMT 45.772488 0.649292 8,725 254 148 -64
2019-03-18 17:42:59 GMT 45.774628 0.659314 8,700 254 148 0
2019-03-18 17:42:48 GMT 45.776779 0.669228 8,700 254 149 -64
2019-03-18 17:42:38 GMT 45.778885 0.679210 8,700 253 149 -64
2019-03-18 17:42:28 GMT 45.781036 0.689392 8,700 254 150 -128
2019-03-18 17:42:17 GMT 45.783337 0.700310 8,700 254 149 0
2019-03-18 17:42:05 GMT 45.785385 0.710025 8,700 254 148 0
2019-03-18 17:41:54 GMT 45.787617 0.720634 8,700 254 149 0
2019-03-18 17:41:45 GMT 45.789505 0.729854 8,725 254 149 64
2019-03-18 17:41:33 GMT 45.791668 0.740341 8,700 254 149 0
2019-03-18 17:41:23 GMT 45.793716 0.750353 8,700 254 149 64
2019-03-18 17:41:13 GMT 45.795776 0.760200 8,700 254 148 64
2019-03-18 17:41:02 GMT 45.797791 0.770048 8,700 254 148 64
2019-03-18 17:40:50 GMT 45.800049 0.780785 8,725 254 147 0
2019-03-18 17:40:41 GMT 45.801956 0.789810 8,700 254 147 -64
2019-03-18 17:40:30 GMT 45.804005 0.799461 8,700 254 145 -64
2019-03-18 17:40:19 GMT 45.806213 0.809840 8,700 254 144 128
2019-03-18 17:40:09 GMT 45.808102 0.818825 8,700 254 145 64
2019-03-18 17:39:57 GMT 45.810471 0.829937 8,700 254 147 -64
2019-03-18 17:39:48 GMT 45.812290 0.838669 8,700 254 147 0
2019-03-18 17:39:38 GMT 45.814480 0.848625 8,700 254 147 64
2019-03-18 17:39:26 GMT 45.816666 0.858994 8,725 253 147 0
2019-03-18 17:39:21 GMT 45.817596 0.863388 8,700 254 148 64
2019-03-18 17:39:16 GMT 45.818665 0.868389 8,700 254 148 64
2019-03-18 17:39:10 GMT 45.819809 0.873681 8,700 254 148 64
2019-03-18 17:39:04 GMT 45.820950 0.879250 8,700 254 148 64
2019-03-18 17:38:59 GMT 45.822067 0.884468 8,700 254 148 0
2019-03-18 17:38:54 GMT 45.823608 0.891835 8,700 254 148 0
2019-03-18 17:38:44 GMT 45.825092 0.898682 8,700 253 148 -64
2019-03-18 17:38:32 GMT 45.827465 0.909874 8,725 254 147 0
2019-03-18 17:38:22 GMT 45.831425 0.928345 8,700 253 149 -64
2019-03-18 17:38:12 GMT 45.831425 0.928345 8,700 254 149 128
2019-03-18 17:38:02 GMT 45.833725 0.939130 8,700 253 149 -64
2019-03-18 17:37:50 GMT 45.835800 0.949013 8,700 254 150 -64
2019-03-18 17:37:40 GMT 45.837845 0.958825 8,700 254 151 -64
2019-03-18 17:37:30 GMT 45.839996 0.968606 8,725 253 147 128
2019-03-18 17:37:19 GMT 45.842178 0.978813 8,700 253 149 128
2019-03-18 17:37:11 GMT 45.843807 0.986229 8,700 253 149 64
2019-03-18 17:37:08 GMT 45.844318 0.988564 8,700 253 151 -128
2019-03-18 17:36:58 GMT 45.846504 0.998589 8,700 253 153 64
2019-03-18 17:36:47 GMT 45.848785 1.009402 8,725 254 153 192
2019-03-18 17:36:36 GMT 45.851028 1.020188 8,725 254 154 0
2019-03-18 17:36:25 GMT 45.853256 1.030998 8,700 254 154 0
2019-03-18 17:36:14 GMT 45.855286 1.041022 8,700 254 153 0
2019-03-18 17:36:04 GMT 45.857445 1.051598 8,700 254 153 -64
2019-03-18 17:35:54 GMT 45.859543 1.061654 8,700 254 151 0
2019-03-18 17:35:42 GMT 45.861694 1.072239 8,725 254 151 -64
2019-03-18 17:35:32 GMT 45.863590 1.081810 8,700 254 150 64
2019-03-18 17:35:22 GMT 45.865631 1.091934 8,700 254 150 0
2019-03-18 17:35:11 GMT 45.867641 1.101860 8,700 254 150 0
2019-03-18 17:35:06 GMT 45.868572 1.106529 8,700 255 149 64
2019-03-18 17:35:00 GMT 45.869877 1.112984 8,700 254 149 -64
2019-03-18 17:34:50 GMT 45.871693 1.121979 8,700 255 148 -64
2019-03-18 17:34:40 GMT 45.873692 1.131935 8,725 255 148 0
2019-03-18 17:34:29 GMT 45.875694 1.142029 8,700 255 149 0
2019-03-18 17:34:18 GMT 45.877899 1.152560 8,700 254 150 0
2019-03-18 17:34:07 GMT 45.880116 1.163383 8,725 254 150 64
2019-03-18 17:33:55 GMT 45.882492 1.174782 8,700 254 152 0
2019-03-18 17:33:45 GMT 45.884491 1.184313 8,700 254 151 -64
2019-03-18 17:33:36 GMT 45.886322 1.192954 8,700 254 150 -64
2019-03-18 17:33:33 GMT 45.886871 1.195701 8,700 254 150 -64
2019-03-18 17:33:25 GMT 45.888405 1.202797 8,700 254 147 -64
2019-03-18 17:33:15 GMT 45.890488 1.212515 8,725 254 145 0
2019-03-18 17:33:04 GMT 45.892502 1.222160 8,700 254 145 0
2019-03-18 17:32:53 GMT 45.894745 1.232612 8,700 254 145 -128
2019-03-18 17:32:43 GMT 45.896645 1.241730 8,725 254 146 -64
2019-03-18 17:32:33 GMT 45.898682 1.251638 8,700 254 145 0
2019-03-18 17:32:21 GMT 45.900833 1.262329 8,700 255 147 0
2019-03-18 17:32:11 GMT 45.902756 1.272337 8,700 256 147 -128
2019-03-18 17:32:01 GMT 45.904312 1.281314 8,700 257 147 64
2019-03-18 17:31:48 GMT 45.906326 1.293777 8,725 258 148 -192
2019-03-18 17:31:41 GMT 45.907425 1.301478 8,700 259 146 0
2019-03-18 17:31:29 GMT 45.908978 1.312866 8,700 260 145 -64
2019-03-18 17:31:18 GMT 45.910145 1.321930 8,725 260 145 128
2019-03-18 17:31:10 GMT 45.911259 1.330307 8,700 259 144 128
2019-03-18 17:30:58 GMT 45.913029 1.342049 8,700 257 146 192
2019-03-18 17:30:47 GMT 45.914795 1.351787 8,700 254 149 0
2019-03-18 17:30:35 GMT 45.917217 1.362648 8,700 251 151 128
2019-03-18 17:30:25 GMT 45.919827 1.372055 8,700 248 152 64
2019-03-18 17:30:14 GMT 45.922756 1.382355 8,700 248 153 0
2019-03-18 17:30:04 GMT 45.925644 1.392316 8,700 248 153 64
2019-03-18 17:29:44 GMT 45.930904 1.410645 8,725 248 152 -64
2019-03-18 17:29:37 GMT 45.932816 1.417442 8,700 248 152 0
2019-03-18 17:29:33 GMT 45.934258 1.422455 8,700 248 152 0
2019-03-18 17:29:22 GMT 45.936905 1.431840 8,725 249 151 -64
2019-03-18 17:29:11 GMT 45.939651 1.441621 8,700 248 151 0
2019-03-18 17:29:00 GMT 45.942444 1.451602 8,700 249 151 64
2019-03-18 17:28:54 GMT 45.944046 1.457430 8,700 248 152 64
2019-03-18 17:28:47 GMT 45.945942 1.464272 8,700 249 151 -64
2019-03-18 17:28:40 GMT 45.947845 1.471230 8,700 249 150 64
2019-03-18 17:28:28 GMT 45.950775 1.481815 8,725 249 150 64
2019-03-18 17:28:23 GMT 45.952057 1.486504 8,725 249 149 64
2019-03-18 17:28:16 GMT 45.953903 1.492973 8,700 249 149 0
2019-03-18 17:28:13 GMT 45.954620 1.495614 8,700 248 148 0
2019-03-18 17:28:07 GMT 45.956276 1.501556 8,700 248 148 64
2019-03-18 17:27:55 GMT 45.959118 1.511650 8,725 249 147 0
2019-03-18 17:27:43 GMT 45.962265 1.523013 8,700 248 146 0
2019-03-18 17:27:35 GMT 45.964325 1.530315 8,700 249 146 0
2019-03-18 17:27:24 GMT 45.967121 1.540283 8,700 249 145 -64
2019-03-18 17:27:13 GMT 45.971218 1.554909 8,700 249 144 64
2019-03-18 17:27:02 GMT 45.972610 1.559925 8,700 249 144 -64
2019-03-18 17:26:56 GMT 45.973919 1.564522 8,700 248 143 0
2019-03-18 17:26:53 GMT 45.975082 1.568504 8,700 249 144 0
2019-03-18 17:26:46 GMT 45.976665 1.574066 8,700 248 145 320
2019-03-18 17:26:41 GMT 45.977783 1.577911 8,700 248 144 0
2019-03-18 17:26:30 GMT 45.980808 1.588486 8,700 248 144 64
2019-03-18 17:26:20 GMT 45.983368 1.597305 8,700 248 144 64
2019-03-18 17:26:11 GMT 45.985840 1.605679 8,700 248 144 -64
2019-03-18 17:26:00 GMT 45.988491 1.614853 8,700 248 144 -64
2019-03-18 17:25:49 GMT 45.991196 1.624436 8,700 249 144 0
2019-03-18 17:25:39 GMT 45.993706 1.633598 8,700 250 145 0
2019-03-18 17:25:29 GMT 45.996231 1.642925 8,725 250 145 0
2019-03-18 17:25:16 GMT 45.999058 1.654404 8,700 251 147 -64
2019-03-18 17:25:07 GMT 46.001060 1.662918 8,700 253 147 64
2019-03-18 17:24:56 GMT 46.003326 1.673137 8,725 254 147 0
2019-03-18 17:24:45 GMT 46.005295 1.682650 8,700 255 142 -128
2019-03-18 17:24:34 GMT 46.007263 1.692966 8,725 256 137 -64
2019-03-18 17:24:24 GMT 46.008926 1.701920 8,750 255 129 -64
2019-03-18 17:24:14 GMT 46.010559 1.710116 8,750 254 126 384
2019-03-18 17:24:11 GMT 46.011021 1.712425 8,700 254 125 640
2019-03-18 17:24:02 GMT 46.012512 1.719223 8,625 252 123 704
2019-03-18 17:23:53 GMT 46.014187 1.726364 8,500 250 119 640
2019-03-18 17:23:43 GMT 46.016373 1.734433 8,375 248 115 640
2019-03-18 17:23:32 GMT 46.018471 1.741264 8,300 246 111 704
2019-03-18 17:23:22 GMT 46.020950 1.748434 8,125 243 110 960
2019-03-18 17:23:11 GMT 46.023499 1.754929 7,950 240 109 896
2019-03-18 17:23:00 GMT 46.026215 1.761564 7,800 240 108 896
2019-03-18 17:22:49 GMT 46.028896 1.768250 7,675 241 105 768
2019-03-18 17:22:39 GMT 46.031364 1.774773 7,500 243 104 704
2019-03-18 17:22:28 GMT 46.033554 1.781227 7,375 245 103 960
2019-03-18 17:22:17 GMT 46.035690 1.788360 7,200 248 109 1088
2019-03-18 17:22:08 GMT 46.037510 1.795441 6,950 251 119 1408
2019-03-18 17:21:59 GMT 46.038940 1.801557 6,775 253 128 1536
2019-03-18 17:21:56 GMT 46.039764 1.805442 6,675 254 132 960
2019-03-18 17:21:49 GMT 46.040771 1.810466 6,650 254 134 -128
2019-03-18 17:21:44 GMT 46.041550 1.814285 6,675 255 132 -64
2019-03-18 17:21:39 GMT 46.042492 1.818993 6,700 255 128 -128
2019-03-18 17:21:33 GMT 46.043335 1.823396 6,700 255 126 -128
2019-03-18 17:21:28 GMT 46.044121 1.827576 6,700 255 123 0
2019-03-18 17:21:24 GMT 46.044865 1.831215 6,675 255 121 576
2019-03-18 17:21:12 GMT 46.046585 1.840076 6,525 255 120 832
2019-03-18 17:21:03 GMT 46.048050 1.847579 6,400 254 120 704
2019-03-18 17:20:52 GMT 46.049706 1.855659 6,275 253 118 576
2019-03-18 17:20:46 GMT 46.050591 1.859642 6,200 253 117 640
2019-03-18 17:20:42 GMT 46.051437 1.863321 6,150 251 116 576
2019-03-18 17:20:30 GMT 46.053432 1.871384 6,075 250 111 448
2019-03-18 17:20:21 GMT 46.055283 1.877858 5,950 248 105 704
2019-03-18 17:20:10 GMT 46.057343 1.884356 5,850 245 98 576
2019-03-18 17:20:06 GMT 46.058041 1.886490 5,800 244 97 832
We lost coverage of the aircraft here for a total of 5 minutes
2019-03-18 17:14:51 GMT 46.124844 1.883606 3,350 68 105 -960
2019-03-18 17:14:36 GMT 46.121445 1.874611 3,675 68 105 -960
2019-03-18 17:14:04 GMT 46.121910 1.852295 4,150 92 117 -2048
2019-03-18 17:14:00 GMT 46.121861 1.848793 4,300 73 105 -1664
2019-03-18 17:13:49 GMT 46.119999 1.841995 4,500 59 104 -512
2019-03-18 17:13:29 GMT 46.116089 1.829773 4,900 80 108 -512
2019-03-18 17:13:19 GMT 46.115021 1.822357 5,100 72 104 -1600
2019-03-18 17:13:06 GMT 46.112869 1.813012 5,325 78 111 -896
2019-03-18 17:12:58 GMT 46.112137 1.807988 5,500 76 105 -1792
2019-03-18 17:12:47 GMT 46.110874 1.800797 5,700 76 106 -512
2019-03-18 17:12:36 GMT 46.109711 1.792488 5,925 78 110 -1472
2019-03-18 17:12:25 GMT 46.108547 1.785141 6,150 75 105 -1024
2019-03-18 17:12:16 GMT 46.107430 1.778755 6,300 86 112 -1856
2019-03-18 17:12:05 GMT 46.109528 1.770474 6,625 133 120 -1152
2019-03-18 17:11:54 GMT 46.114105 1.766052 6,850 159 115 -1216
2019-03-18 17:11:42 GMT 46.119953 1.763031 7,075 167 114 -1152
2019-03-18 17:11:32 GMT 46.124981 1.761314 7,375 165 108 -1728
2019-03-18 17:11:22 GMT 46.129944 1.759554 7,525 164 108 -576
2019-03-18 17:11:19 GMT 46.131409 1.758951 7,550 163 111 -640
2019-03-18 17:11:12 GMT 46.136169 1.757009 7,800 167 107 -1600
2019-03-18 17:10:54 GMT 46.143417 1.752869 8,000 151 117 -1472
2019-03-18 17:10:51 GMT 46.145187 1.751381 8,100 149 113 -1600
2019-03-18 17:10:39 GMT 46.150074 1.746689 8,275 142 119 -384
2019-03-18 17:10:29 GMT 46.154076 1.741058 8,525 119 121 -1728
2019-03-18 17:10:19 GMT 46.154728 1.733025 8,700 70 123 -1408
2019-03-18 17:10:08 GMT 46.151321 1.726595 8,950 35 114 -1024
2019-03-18 17:09:58 GMT 46.146584 1.722313 9,275 30 103 -3328
2019-03-18 17:09:48 GMT 46.143044 1.719223 9,500 29 88 1856
2019-03-18 17:09:37 GMT 46.137596 1.717163 9,500 356 117 -6016
2019-03-18 17:09:25 GMT 46.135208 1.722643 10,050 263 94 -1280
2019-03-18 17:09:15 GMT 46.135223 1.728630 10,200 281 96 -1024
2019-03-18 17:09:05 GMT 46.134842 1.735103 10,500 260 89 -1216
2019-03-18 17:08:53 GMT 46.137909 1.742070 10,625 227 110 -2432
2019-03-18 17:08:44 GMT 46.139694 1.746893 10,875 272 95 -640
2019-03-18 17:08:33 GMT 46.137970 1.753418 11,050 302 102 -1856
2019-03-18 17:08:22 GMT 46.136433 1.760353 11,350 276 98 -1664
2019-03-18 17:08:11 GMT 46.136215 1.767124 11,650 273 85 -896
2019-03-18 17:08:02 GMT 46.134617 1.773262 11,700 299 106 -960
2019-03-18 17:07:57 GMT 46.133926 1.775431 11,800 289 105 -2176
2019-03-18 17:07:50 GMT 46.134567 1.780656 11,950 228 116 -1728
2019-03-18 17:07:47 GMT 46.135548 1.782326 12,025 224 116 -2048
2019-03-18 17:07:41 GMT 46.137970 1.785896 12,350 237 99 -2816
2019-03-18 17:07:36 GMT 46.138760 1.788162 12,500 251 89 -1728
2019-03-18 17:07:29 GMT 46.139282 1.791977 13,075 274 89 0
2019-03-18 17:07:26 GMT 46.139191 1.793920 12,600 279 91 -320
2019-03-18 17:07:17 GMT 46.139191 1.799815 12,750 261 100 -1472
2019-03-18 17:07:09 GMT 46.140289 1.805040 13,025 253 88 -1344
2019-03-18 17:06:57 GMT 46.142204 1.811577 13,050 239 114 896
2019-03-18 17:06:47 GMT 46.144951 1.818649 13,400 261 104 -2752
2019-03-18 17:06:36 GMT 46.143509 1.824829 13,600 313 96 -1600
2019-03-18 17:06:26 GMT 46.141388 1.830496 14,000 275 93 -1344
2019-03-18 17:06:13 GMT 46.142761 1.839004 14,150 251 114 -960
2019-03-18 17:06:05 GMT 46.143044 1.844742 14,325 300 100 -832
2019-03-18 17:05:53 GMT 46.140701 1.852134 14,700 270 104 -1408
2019-03-18 17:05:49 GMT 46.140903 1.854561 14,750 256 112 -896
2019-03-18 17:05:42 GMT 46.141972 1.859299 14,900 254 112 -1984
2019-03-18 17:05:31 GMT 46.143494 1.867475 15,250 260 102 -1920
2019-03-18 17:05:22 GMT 46.143089 1.872963 15,425 289 94 -640
2019-03-18 17:05:11 GMT 46.141788 1.879623 15,625 281 101 -2112
2019-03-18 17:05:01 GMT 46.141788 1.886627 15,950 253 105 -1280
2019-03-18 17:04:51 GMT 46.143463 1.893356 16,200 254 100 -1792
2019-03-18 17:04:40 GMT 46.145046 1.900223 16,450 248 97 -960
2019-03-18 17:04:31 GMT 46.147064 1.906530 16,550 248 107 -1024
2019-03-18 17:04:25 GMT 46.147797 1.909410 16,650 259 99 -1728
2019-03-18 17:04:20 GMT 46.148117 1.912894 16,850 282 82 -1152
2019-03-18 17:04:17 GMT 46.148026 1.914299 16,900 280 83 -1344
2019-03-18 17:04:03 GMT 46.146881 1.922272 17,050 265 100 -960
2019-03-18 17:03:46 GMT 46.144394 1.929199 17,400 359 94 64
2019-03-18 17:03:43 GMT 46.143860 1.929239 17,350 359 86 1216
2019-03-18 17:03:38 GMT 46.141415 1.929474 17,400 343 94 -2176
2019-03-18 17:03:33 GMT 46.139690 1.931190 17,650 288 88 -2624
2019-03-18 17:03:26 GMT 46.139366 1.935036 17,925 261 92 -1792
2019-03-18 17:03:21 GMT 46.140152 1.937747 18,000 239 104 -1024
2019-03-18 17:03:16 GMT 46.142998 1.943344 18,225 234 104 -1408
2019-03-18 17:03:11 GMT 46.142998 1.943344 18,250 237 100 -1344
2019-03-18 17:03:04 GMT 46.144348 1.947464 18,375 255 88 -896
2019-03-18 17:03:00 GMT 46.144684 1.949604 18,450 262 85 -896
2019-03-18 17:02:54 GMT 46.144905 1.953438 18,600 268 83 -1728
2019-03-18 17:02:50 GMT 46.145138 1.955429 18,775 249 83 -2112
2019-03-18 17:02:44 GMT 46.146286 1.958916 18,875 241 85 -448
2019-03-18 17:02:39 GMT 46.146999 1.960716 18,900 241 91 -320
2019-03-18 17:02:33 GMT 46.148491 1.964355 18,925 241 106 -192
2019-03-18 17:02:29 GMT 46.149399 1.966687 18,950 241 108 -192
2019-03-18 17:02:23 GMT 46.150864 1.970398 18,950 242 120 -64
2019-03-18 17:02:18 GMT 46.152328 1.974257 19,000 243 130 -64
2019-03-18 17:02:12 GMT 46.154171 1.979256 19,000 243 141 0
2019-03-18 17:02:07 GMT 46.155579 1.983233 19,000 243 149 -64
2019-03-18 17:02:02 GMT 46.157101 1.987564 19,000 244 153 0
2019-03-18 17:01:54 GMT 46.159897 1.995529 19,000 244 155 -64
2019-03-18 17:01:51 GMT 46.160843 1.998306 19,000 244 157 -128
2019-03-18 17:01:43 GMT 46.163342 2.005417 19,000 244 159 64
2019-03-18 17:01:40 GMT 46.164459 2.008622 19,000 244 159 64
2019-03-18 17:01:30 GMT 46.167755 2.018202 19,000 244 159 -128
2019-03-18 17:01:19 GMT 46.171371 2.028518 19,000 244 159 -64
2019-03-18 17:01:10 GMT 46.178284 2.048538 19,000 244 160 64
2019-03-18 17:00:58 GMT 46.178284 2.048538 19,000 244 160 -64
2019-03-18 17:00:47 GMT 46.181900 2.058865 19,025 244 160 0
2019-03-18 17:00:40 GMT 46.184429 2.066116 19,025 244 159 256
2019-03-18 17:00:37 GMT 46.185219 2.068314 19,025 244 159 256
2019-03-18 17:00:27 GMT 46.188721 2.078359 19,000 244 158 0
2019-03-18 17:00:18 GMT 46.191513 2.086197 19,000 244 159 192
2019-03-18 17:00:15 GMT 46.192574 2.089188 19,000 244 160 128
2019-03-18 17:00:04 GMT 46.196274 2.099728 19,000 243 160 192
2019-03-18 16:59:55 GMT 46.199280 2.108414 19,000 244 160 -256
2019-03-18 16:59:52 GMT 46.200211 2.111117 19,000 244 161 -128
2019-03-18 16:59:46 GMT 46.202087 2.116543 19,050 244 160 -64
2019-03-18 16:59:42 GMT 46.203423 2.120430 19,050 244 161 64
2019-03-18 16:59:33 GMT 46.206448 2.129219 19,000 244 162 128
2019-03-18 16:59:24 GMT 46.209595 2.138382 19,000 244 163 192
2019-03-18 16:59:14 GMT 46.212963 2.148170 19,000 244 163 128
2019-03-18 16:59:02 GMT 46.217201 2.160736 19,000 245 163 -128
2019-03-18 16:58:53 GMT 46.219986 2.169130 19,025 245 164 0
2019-03-18 16:58:47 GMT 46.221668 2.174194 18,975 245 165 192
2019-03-18 16:58:42 GMT 46.223579 2.179893 19,025 244 165 0
2019-03-18 16:58:37 GMT 46.225159 2.184672 19,025 244 165 0
2019-03-18 16:58:32 GMT 46.226898 2.189696 19,000 244 165 64
2019-03-18 16:58:21 GMT 46.230560 2.200562 19,000 244 165 128
2019-03-18 16:58:10 GMT 46.234287 2.211273 19,000 244 165 64
2019-03-18 16:57:59 GMT 46.238056 2.222191 19,025 243 165 -64
2019-03-18 16:57:49 GMT 46.244110 2.239469 19,000 244 165 64
2019-03-18 16:57:38 GMT 46.245163 2.242417 19,000 243 165 0
2019-03-18 16:57:27 GMT 46.248997 2.253296 19,000 243 165 0
2019-03-18 16:57:17 GMT 46.252396 2.262849 19,025 244 166 64
2019-03-18 16:57:07 GMT 46.256027 2.273140 19,000 244 166 0
2019-03-18 16:56:56 GMT 46.259949 2.284419 19,025 244 167 -64
2019-03-18 16:56:48 GMT 46.262604 2.292190 19,000 244 168 -64
2019-03-18 16:56:45 GMT 46.263756 2.295456 19,025 245 169 0
2019-03-18 16:56:37 GMT 46.266266 2.302775 19,000 244 168 -64
2019-03-18 16:56:34 GMT 46.267319 2.305923 19,000 244 169 64
2019-03-18 16:56:24 GMT 46.270924 2.316399 19,000 245 169 0
2019-03-18 16:56:13 GMT 46.274555 2.327248 19,000 245 169 0
2019-03-18 16:56:03 GMT 46.278233 2.338165 19,000 245 169 0
2019-03-18 16:55:52 GMT 46.281921 2.349065 19,025 245 167 -128
2019-03-18 16:55:42 GMT 46.285400 2.359245 19,000 245 166 0
2019-03-18 16:55:30 GMT 46.289246 2.370635 19,000 244 167 64
2019-03-18 16:55:20 GMT 46.292709 2.380943 19,000 245 166 128
2019-03-18 16:55:12 GMT 46.295593 2.389458 19,025 245 167 -64
2019-03-18 16:55:09 GMT 46.296432 2.391938 19,000 245 167 -64
2019-03-18 16:54:59 GMT 46.299957 2.402388 19,000 244 167 0
2019-03-18 16:54:48 GMT 46.303619 2.413107 19,050 244 166 -64
2019-03-18 16:54:40 GMT 46.306229 2.420744 19,025 245 166 0
2019-03-18 16:54:35 GMT 46.307877 2.425634 19,000 245 166 0
2019-03-18 16:54:27 GMT 46.310852 2.434410 19,000 244 167 64
2019-03-18 16:54:15 GMT 46.314774 2.445969 19,000 245 167 -64
2019-03-18 16:54:03 GMT 46.318825 2.458054 19,000 245 168 64
2019-03-18 16:53:55 GMT 46.321701 2.466364 19,000 244 168 128
2019-03-18 16:53:52 GMT 46.322617 2.469110 19,000 244 168 128
2019-03-18 16:53:47 GMT 46.324272 2.473915 19,025 244 167 -64
2019-03-18 16:53:43 GMT 46.326691 2.480833 19,025 244 168 512
2019-03-18 16:53:31 GMT 46.329811 2.489914 19,000 244 168 64
2019-03-18 16:53:22 GMT 46.333069 2.499458 19,000 244 168 -128
2019-03-18 16:53:14 GMT 46.335754 2.507227 19,000 244 168 128
2019-03-18 16:53:11 GMT 46.336933 2.510651 19,000 244 168 64
2019-03-18 16:53:00 GMT 46.340652 2.521362 19,025 244 169 0
2019-03-18 16:52:53 GMT 46.343220 2.528778 19,000 244 169 -64
2019-03-18 16:52:50 GMT 46.344269 2.531880 19,000 244 169 -64
2019-03-18 16:52:39 GMT 46.348068 2.542866 19,050 244 168 64
2019-03-18 16:52:29 GMT 46.351639 2.553316 19,000 244 168 64
2019-03-18 16:52:21 GMT 46.354340 2.561221 19,000 244 170 64
2019-03-18 16:52:18 GMT 46.355438 2.564437 19,000 244 170 0
2019-03-18 16:52:13 GMT 46.357132 2.569461 18,975 244 170 64
2019-03-18 16:52:07 GMT 46.359192 2.575624 18,975 245 171 192
2019-03-18 16:52:01 GMT 46.361095 2.581238 19,000 245 171 128
2019-03-18 16:51:56 GMT 46.363003 2.586937 19,000 245 170 64
2019-03-18 16:51:51 GMT 46.364548 2.591568 19,000 245 171 -64
2019-03-18 16:51:45 GMT 46.366726 2.598198 19,000 245 171 -512
2019-03-18 16:51:40 GMT 46.368542 2.603554 19,025 245 170 256
2019-03-18 16:51:35 GMT 46.370178 2.608583 19,050 245 169 256
2019-03-18 16:51:29 GMT 46.373840 2.619502 19,025 245 169 -256
2019-03-18 16:51:24 GMT 46.373840 2.619502 19,000 245 169 128
2019-03-18 16:51:19 GMT 46.375618 2.624840 19,000 245 169 64
2019-03-18 16:51:13 GMT 46.377575 2.630539 19,000 245 169 0
2019-03-18 16:51:10 GMT 46.378784 2.634173 19,000 245 169 0
2019-03-18 16:51:02 GMT 46.381207 2.641457 19,000 245 170 -192
2019-03-18 16:50:56 GMT 46.383224 2.647571 19,025 245 169 -64
2019-03-18 16:50:52 GMT 46.384827 2.652327 19,000 245 168 0
2019-03-18 16:50:47 GMT 46.386463 2.657181 19,000 245 168 128
2019-03-18 16:50:41 GMT 46.388535 2.663381 19,000 245 169 -192
2019-03-18 16:50:34 GMT 46.390915 2.670750 19,025 245 169 0
2019-03-18 16:50:30 GMT 46.392105 2.674300 19,025 245 169 64
2019-03-18 16:50:24 GMT 46.394054 2.680183 19,000 245 169 128
2019-03-18 16:50:20 GMT 46.395683 2.685127 19,000 245 169 64
2019-03-18 16:50:15 GMT 46.397358 2.690346 18,975 245 170 128
2019-03-18 16:50:09 GMT 46.399109 2.695804 19,000 245 170 -128
2019-03-18 16:50:04 GMT 46.400894 2.701297 19,000 245 170 -64
2019-03-18 16:49:58 GMT 46.402771 2.707058 19,000 245 170 -64
2019-03-18 16:49:53 GMT 46.404434 2.712181 19,000 245 169 192
2019-03-18 16:49:47 GMT 46.406437 2.718292 19,025 245 170 0
2019-03-18 16:49:41 GMT 46.408440 2.724403 19,025 245 169 192
2019-03-18 16:49:37 GMT 46.409740 2.728455 19,000 245 170 64
2019-03-18 16:49:27 GMT 46.413418 2.739441 19,000 245 169 128
2019-03-18 16:49:18 GMT 46.416306 2.748161 19,025 244 165 64
2019-03-18 16:49:15 GMT 46.417328 2.751183 19,025 244 168 128
2019-03-18 16:49:04 GMT 46.421101 2.762169 19,000 244 167 -64
2019-03-18 16:48:53 GMT 46.424965 2.773293 19,000 244 165 192
2019-03-18 16:48:42 GMT 46.428780 2.784142 19,025 243 166 -64
2019-03-18 16:48:38 GMT 46.430283 2.788451 19,025 244 165 0
2019-03-18 16:48:32 GMT 46.432388 2.794547 19,000 243 165 0
2019-03-18 16:48:28 GMT 46.433575 2.797806 19,000 243 165 0
2019-03-18 16:48:19 GMT 46.436874 2.807208 19,000 244 165 64
2019-03-18 16:48:10 GMT 46.440765 2.818462 19,000 244 165 0
2019-03-18 16:47:59 GMT 46.443630 2.826782 18,975 244 166 -64
2019-03-18 16:47:49 GMT 46.447170 2.837151 19,000 244 166 -64
2019-03-18 16:47:35 GMT 46.451569 2.850148 19,000 245 166 -64
2019-03-18 16:47:27 GMT 46.455460 2.861804 18,975 245 167 -64
2019-03-18 16:47:16 GMT 46.458015 2.869492 19,000 245 168 0
2019-03-18 16:47:03 GMT 46.462345 2.882607 18,975 245 169 -64
2019-03-18 16:46:53 GMT 46.465897 2.893558 18,975 246 168 64
2019-03-18 16:46:44 GMT 46.468910 2.902863 19,000 246 168 0
2019-03-18 16:46:31 GMT 46.473007 2.915634 19,000 246 167 64
2019-03-18 16:46:20 GMT 46.476730 2.927170 19,025 245 166 0
2019-03-18 16:46:11 GMT 46.479492 2.935761 19,000 245 166 0
2019-03-18 16:46:01 GMT 46.482876 2.946465 19,000 246 165 -64
2019-03-18 16:45:50 GMT 46.486320 2.957314 19,000 246 165 64
2019-03-18 16:45:39 GMT 46.489765 2.968231 19,000 246 165 64
2019-03-18 16:45:28 GMT 46.493362 2.979506 19,000 245 165 64
2019-03-18 16:45:17 GMT 46.496887 2.990479 19,000 245 165 0
2019-03-18 16:45:06 GMT 46.500320 3.001143 19,000 245 166 64
2019-03-18 16:44:56 GMT 46.504242 3.013138 18,975 245 166 -64
2019-03-18 16:44:45 GMT 46.507645 3.023384 19,000 245 166 -64
2019-03-18 16:44:35 GMT 46.511131 3.034012 19,025 245 166 0
2019-03-18 16:44:23 GMT 46.514763 3.045135 19,000 245 165 0
2019-03-18 16:44:16 GMT 46.517120 3.052190 19,000 244 165 64
2019-03-18 16:44:13 GMT 46.518066 3.054955 19,000 245 164 0
2019-03-18 16:44:02 GMT 46.521744 3.065922 19,000 245 164 0
2019-03-18 16:43:51 GMT 46.525223 3.076239 19,050 244 163 0
2019-03-18 16:43:41 GMT 46.528824 3.086815 19,000 244 162 64
2019-03-18 16:43:29 GMT 46.532547 3.097939 19,000 245 162 0
2019-03-18 16:43:18 GMT 46.536133 3.108650 19,000 245 161 0
2019-03-18 16:43:08 GMT 46.539436 3.118607 18,975 245 162 0
2019-03-18 16:42:57 GMT 46.543030 3.129496 18,975 245 162 0
2019-03-18 16:42:46 GMT 46.546558 3.140167 19,000 245 162 0
2019-03-18 16:42:36 GMT 46.550079 3.150732 18,975 245 163 -64
2019-03-18 16:42:25 GMT 46.553513 3.161115 19,000 244 163 -64
2019-03-18 16:42:15 GMT 46.557034 3.171547 19,000 245 163 0
2019-03-18 16:42:04 GMT 46.560665 3.182190 18,975 244 163 0
2019-03-18 16:41:53 GMT 46.564362 3.192935 19,000 244 161 -64
2019-03-18 16:41:42 GMT 46.568020 3.203407 19,025 244 160 0
2019-03-18 16:41:31 GMT 46.571640 3.213769 19,000 244 159 0
2019-03-18 16:41:20 GMT 46.575073 3.223750 19,000 244 158 64
2019-03-18 16:41:09 GMT 46.578690 3.234335 19,000 244 159 64
2019-03-18 16:40:58 GMT 46.582352 3.244919 19,000 245 159 64
2019-03-18 16:40:46 GMT 46.586269 3.256622 18,975 245 162 64
2019-03-18 16:40:37 GMT 46.589081 3.265217 18,975 245 162 -64
2019-03-18 16:40:34 GMT 46.590088 3.268299 19,000 245 163 0
2019-03-18 16:40:27 GMT 46.592552 3.275917 19,000 246 163 0
2019-03-18 16:40:19 GMT 46.595123 3.283907 18,975 246 162 64
2019-03-18 16:40:16 GMT 46.596043 3.286766 18,975 245 163 -64
2019-03-18 16:40:11 GMT 46.597412 3.291075 18,975 245 164 0
2019-03-18 16:40:03 GMT 46.600067 3.299248 19,000 246 164 0
2019-03-18 16:39:54 GMT 46.603027 3.308533 19,025 246 164 0
2019-03-18 16:39:49 GMT 46.604462 3.313115 19,000 245 164 -64
2019-03-18 16:39:42 GMT 46.606983 3.320824 19,000 246 163 0
2019-03-18 16:39:38 GMT 46.607986 3.324101 19,000 246 163 0
2019-03-18 16:39:32 GMT 46.609955 3.330264 19,000 246 163 0
2019-03-18 16:39:27 GMT 46.611687 3.335518 19,025 245 162 64
2019-03-18 16:39:22 GMT 46.613205 3.340246 19,000 246 161 64
2019-03-18 16:39:11 GMT 46.616898 3.351723 19,000 245 162 -64
2019-03-18 16:39:00 GMT 46.620251 3.361954 19,000 246 162 0
2019-03-18 16:38:49 GMT 46.623837 3.373215 19,025 245 163 -64
2019-03-18 16:38:40 GMT 46.626709 3.381980 19,000 245 162 64
2019-03-18 16:38:29 GMT 46.630234 3.392632 19,000 244 163 -128
2019-03-18 16:38:18 GMT 46.633797 3.403290 19,025 245 162 0
2019-03-18 16:38:07 GMT 46.637615 3.414413 19,000 244 161 64
2019-03-18 16:37:55 GMT 46.641384 3.425468 19,000 244 160 -64
2019-03-18 16:37:48 GMT 46.643921 3.432692 19,000 243 161 0
2019-03-18 16:37:45 GMT 46.644924 3.435425 19,025 243 160 0
2019-03-18 16:37:36 GMT 46.647812 3.443678 19,000 244 160 0
2019-03-18 16:37:32 GMT 46.649231 3.447764 19,000 244 159 0
2019-03-18 16:37:26 GMT 46.651154 3.453257 18,975 243 159 64
2019-03-18 16:37:23 GMT 46.652206 3.456205 18,975 244 159 128
2019-03-18 16:37:15 GMT 46.656006 3.467392 19,025 244 158 -64
2019-03-18 16:37:05 GMT 46.658329 3.474014 19,000 244 158 0
2019-03-18 16:37:02 GMT 46.659309 3.476898 18,975 245 158 0
2019-03-18 16:36:54 GMT 46.661682 3.484140 18,975 245 158 -64
2019-03-18 16:36:51 GMT 46.662598 3.486953 18,975 245 157 -64
2019-03-18 16:36:44 GMT 46.664986 3.494133 18,975 245 157 0
2019-03-18 16:36:40 GMT 46.665985 3.497270 19,000 246 157 0
2019-03-18 16:36:33 GMT 46.668182 3.504371 19,000 246 157 64
2019-03-18 16:36:29 GMT 46.669411 3.508209 19,025 246 157 0
2019-03-18 16:36:23 GMT 46.671364 3.514458 19,000 247 156 0
2019-03-18 16:36:19 GMT 46.672531 3.518372 18,975 247 157 -64
2019-03-18 16:36:12 GMT 46.674393 3.524757 18,975 247 157 64
2019-03-18 16:36:08 GMT 46.675556 3.528809 19,000 248 156 0
2019-03-18 16:36:00 GMT 46.677841 3.536928 19,000 248 157 0
2019-03-18 16:35:57 GMT 46.678391 3.538937 19,000 248 157 -64
2019-03-18 16:35:50 GMT 46.680359 3.546239 19,000 250 157 128
2019-03-18 16:35:47 GMT 46.681282 3.549683 18,975 249 157 0
2019-03-18 16:35:38 GMT 46.683514 3.557991 18,975 249 158 64
2019-03-18 16:35:35 GMT 46.684296 3.560843 18,975 249 158 64
2019-03-18 16:35:29 GMT 46.686077 3.567535 19,000 249 159 -64
2019-03-18 16:35:25 GMT 46.687042 3.571093 19,000 248 161 64
2019-03-18 16:35:18 GMT 46.689102 3.578384 19,025 248 161 0
2019-03-18 16:35:14 GMT 46.690220 3.582161 19,000 247 162 -64
2019-03-18 16:35:07 GMT 46.692268 3.588821 18,975 246 163 0
2019-03-18 16:35:03 GMT 46.693497 3.592797 19,000 246 164 -128
2019-03-18 16:34:56 GMT 46.695992 3.600151 19,025 243 165 64
2019-03-18 16:34:52 GMT 46.697250 3.603717 19,000 243 165 64
2019-03-18 16:34:46 GMT 46.699493 3.609679 19,000 241 167 -64
2019-03-18 16:34:42 GMT 46.701157 3.613884 19,000 239 168 -64
2019-03-18 16:34:34 GMT 46.704300 3.621201 19,000 238 169 0
2019-03-18 16:34:31 GMT 46.705860 3.624458 19,000 234 171 64
2019-03-18 16:34:25 GMT 46.708652 3.629539 19,000 230 174 64
2019-03-18 16:34:20 GMT 46.711441 3.633996 19,000 225 176 0
2019-03-18 16:34:15 GMT 46.714691 3.638484 19,025 223 179 -64
2019-03-18 16:34:09 GMT 46.718010 3.642792 19,000 222 179 0
2019-03-18 16:34:04 GMT 46.721191 3.646925 19,000 223 178 0
2019-03-18 16:33:57 GMT 46.725273 3.652336 19,000 223 178 0
2019-03-18 16:33:54 GMT 46.727646 3.655426 19,000 222 178 -64
2019-03-18 16:33:47 GMT 46.731674 3.660725 19,000 223 178 64
2019-03-18 16:33:43 GMT 46.734009 3.663806 19,000 223 178 0
2019-03-18 16:33:36 GMT 46.738400 3.669571 18,975 223 179 0
2019-03-18 16:33:33 GMT 46.740463 3.672314 18,975 222 178 64
2019-03-18 16:33:25 GMT 46.747101 3.681023 18,975 223 181 0
2019-03-18 16:33:22 GMT 46.753342 3.689140 18,975 223 181 0
2019-03-18 16:33:12 GMT 46.753342 3.689140 18,975 223 181 0
2019-03-18 16:33:01 GMT 46.760048 3.697929 18,975 223 181 0
2019-03-18 16:32:50 GMT 46.766796 3.706924 19,000 223 181 -64
2019-03-18 16:32:40 GMT 46.772709 3.714752 19,000 222 181 -64
2019-03-18 16:32:29 GMT 46.779877 3.724091 18,975 223 181 128
2019-03-18 16:32:19 GMT 46.786163 3.732399 19,000 222 182 0
2019-03-18 16:32:10 GMT 46.792027 3.740089 19,000 222 184 0
2019-03-18 16:31:59 GMT 46.798637 3.748672 19,000 222 185 64
2019-03-18 16:31:56 GMT 46.800640 3.751213 19,000 222 184 64
2019-03-18 16:31:49 GMT 46.805531 3.757599 19,000 222 186 0
2019-03-18 16:31:36 GMT 46.813908 3.768448 19,000 222 189 0
2019-03-18 16:31:28 GMT 46.821075 3.777649 18,975 222 189 128
2019-03-18 16:31:16 GMT 46.826523 3.784656 18,975 222 189 0
2019-03-18 16:31:04 GMT 46.834442 3.794772 19,000 222 188 0
2019-03-18 16:30:55 GMT 46.840256 3.802231 19,000 222 186 -64
2019-03-18 16:30:44 GMT 46.847900 3.812122 19,000 222 187 64
2019-03-18 16:30:33 GMT 46.855087 3.821366 19,025 222 187 -64
2019-03-18 16:30:22 GMT 46.861809 3.830109 19,000 222 186 0
2019-03-18 16:30:12 GMT 46.868500 3.838760 18,975 222 187 128
2019-03-18 16:30:00 GMT 46.875916 3.848511 19,000 222 186 64
2019-03-18 16:29:50 GMT 46.882324 3.856888 19,000 223 186 64
2019-03-18 16:29:39 GMT 46.889694 3.866695 19,000 223 186 64
2019-03-18 16:29:29 GMT 46.895782 3.874809 19,025 223 186 64
2019-03-18 16:29:20 GMT 46.901733 3.882912 19,000 224 184 0
2019-03-18 16:29:15 GMT 46.904434 3.886620 18,975 224 184 128
2019-03-18 16:29:08 GMT 46.909286 3.893280 18,975 224 183 0
2019-03-18 16:28:56 GMT 46.916702 3.903648 19,000 225 183 -64
2019-03-18 16:28:46 GMT 46.922607 3.912119 19,000 225 180 -128
2019-03-18 16:28:37 GMT 46.928005 3.919725 19,025 225 178 -128
2019-03-18 16:28:33 GMT 46.930241 3.922964 19,025 224 176 -64
2019-03-18 16:28:25 GMT 46.935013 3.929672 19,075 224 174 -64
2019-03-18 16:28:21 GMT 46.937027 3.932487 19,050 224 172 192
2019-03-18 16:28:14 GMT 46.940918 3.937843 19,025 224 171 128
2019-03-18 16:28:03 GMT 46.947693 3.947182 18,975 223 171 512
2019-03-18 16:27:52 GMT 46.954170 3.956064 18,950 223 172 0
2019-03-18 16:27:43 GMT 46.959412 3.962906 18,975 223 168 -192
2019-03-18 16:27:31 GMT 46.966133 3.971558 19,000 221 163 -192
2019-03-18 16:27:21 GMT 46.971863 3.978630 18,975 221 159 512
2019-03-18 16:27:10 GMT 46.977768 3.985840 18,875 220 159 448
2019-03-18 16:27:00 GMT 46.983871 3.993108 18,775 220 158 768
2019-03-18 16:26:50 GMT 46.989487 3.999985 18,625 220 164 960
2019-03-18 16:26:39 GMT 46.995602 4.007545 18,475 221 170 1024
2019-03-18 16:26:28 GMT 47.002213 4.016052 18,150 222 177 1152
2019-03-18 16:26:18 GMT 47.008484 4.024292 18,025 223 191 0
2019-03-18 16:26:07 GMT 47.015526 4.033743 18,050 223 190 0
2019-03-18 16:25:58 GMT 47.023766 4.044729 18,000 223 189 0
2019-03-18 16:25:46 GMT 47.029678 4.052582 18,000 223 189 0
2019-03-18 16:25:36 GMT 47.043133 4.070435 18,000 223 191 0
2019-03-18 16:25:25 GMT 47.043133 4.070435 18,000 222 190 0
2019-03-18 16:25:14 GMT 47.050049 4.079567 18,000 222 190 0
2019-03-18 16:25:03 GMT 47.057842 4.089801 18,000 222 189 64
2019-03-18 16:24:52 GMT 47.064514 4.098518 18,025 222 189 64
2019-03-18 16:24:42 GMT 47.079163 4.117831 17,975 223 189 0
2019-03-18 16:24:30 GMT 47.085030 4.125577 17,975 222 190 0
2019-03-18 16:24:21 GMT 47.092255 4.135117 18,000 222 190 0
2019-03-18 16:24:10 GMT 47.092255 4.135117 18,000 223 190 0
2019-03-18 16:24:00 GMT 47.098984 4.144043 18,000 223 190 64
2019-03-18 16:23:49 GMT 47.105621 4.152832 18,025 222 189 0
2019-03-18 16:23:40 GMT 47.111935 4.161142 18,000 223 190 0
2019-03-18 16:23:28 GMT 47.119385 4.170931 17,975 223 190 64
2019-03-18 16:23:18 GMT 47.126358 4.180298 17,975 223 191 64
2019-03-18 16:23:08 GMT 47.134560 4.191143 18,000 223 191 0
2019-03-18 16:22:56 GMT 47.140320 4.198769 18,000 223 191 0
2019-03-18 16:22:46 GMT 47.147324 4.208176 17,975 223 191 0
2019-03-18 16:22:34 GMT 47.155506 4.219102 18,000 223 191 0
2019-03-18 16:22:24 GMT 47.161240 4.226784 18,000 223 191 0
2019-03-18 16:22:16 GMT 47.166866 4.234244 18,000 223 190 0
2019-03-18 16:22:13 GMT 47.168518 4.236465 18,000 223 189 0
2019-03-18 16:22:05 GMT 47.174011 4.243813 18,000 223 189 0
2019-03-18 16:22:02 GMT 47.180412 4.252343 18,000 222 188 0
2019-03-18 16:21:55 GMT 47.182369 4.254949 18,000 222 188 0
2019-03-18 16:21:44 GMT 47.187286 4.261459 18,025 223 188 64
2019-03-18 16:21:41 GMT 47.193077 4.269315 18,000 222 188 0
2019-03-18 16:21:33 GMT 47.194706 4.271428 17,975 222 188 0
2019-03-18 16:21:30 GMT 47.196709 4.274034 17,975 222 188 0
2019-03-18 16:21:23 GMT 47.201084 4.279809 18,000 223 188 0
2019-03-18 16:21:20 GMT 47.203037 4.282485 18,025 223 188 0
2019-03-18 16:21:13 GMT 47.207275 4.288189 18,025 223 189 0
2019-03-18 16:21:09 GMT 47.210037 4.291809 18,000 223 189 0
2019-03-18 16:21:02 GMT 47.214752 4.298195 17,975 223 189 0
2019-03-18 16:20:58 GMT 47.217178 4.301422 18,000 223 188 0
2019-03-18 16:20:47 GMT 47.224174 4.310796 18,000 223 188 0
2019-03-18 16:20:40 GMT 47.228828 4.317134 18,025 223 188 0
2019-03-18 16:20:36 GMT 47.231369 4.320511 18,000 223 186 0
2019-03-18 16:20:30 GMT 47.235252 4.325726 18,000 222 186 -64
2019-03-18 16:20:26 GMT 47.237640 4.328819 18,000 223 186 64
2019-03-18 16:20:19 GMT 47.242218 4.334999 18,000 223 186 128
2019-03-18 16:20:14 GMT 47.245377 4.339256 18,000 223 187 0
2019-03-18 16:20:09 GMT 47.248535 4.343513 18,025 223 187 0
2019-03-18 16:20:04 GMT 47.251358 4.347276 18,000 223 187 0
2019-03-18 16:19:57 GMT 47.255768 4.353195 17,975 223 186 0
2019-03-18 16:19:52 GMT 47.259384 4.358070 18,000 223 187 0
2019-03-18 16:19:47 GMT 47.262253 4.361854 18,000 223 187 0
2019-03-18 16:19:43 GMT 47.265060 4.365623 18,000 223 188 0
2019-03-18 16:19:33 GMT 47.271561 4.374481 18,025 223 188 -64
2019-03-18 16:19:26 GMT 47.276093 4.380524 18,000 223 188 0
2019-03-18 16:19:22 GMT 47.278336 4.383545 18,000 223 188 0
2019-03-18 16:19:15 GMT 47.283096 4.389931 18,000 223 188 64
2019-03-18 16:19:11 GMT 47.285385 4.393021 18,000 223 188 -64
2019-03-18 16:19:01 GMT 47.291977 4.401947 18,000 223 188 64
2019-03-18 16:18:51 GMT 47.299030 4.411433 18,025 223 188 0
2019-03-18 16:18:44 GMT 47.303032 4.416926 18,000 223 189 0
2019-03-18 16:18:39 GMT 47.306011 4.420870 18,000 223 188 0
2019-03-18 16:18:32 GMT 47.310379 4.426872 17,975 224 188 0
2019-03-18 16:18:29 GMT 47.312576 4.429814 18,000 223 189 0
2019-03-18 16:18:22 GMT 47.316833 4.435661 18,000 223 189 0
2019-03-18 16:18:18 GMT 47.319901 4.439713 18,025 223 189 -64
2019-03-18 16:18:12 GMT 47.323654 4.444815 18,000 223 189 0
2019-03-18 16:18:04 GMT 47.328690 4.451660 18,000 223 189 0
2019-03-18 16:18:00 GMT 47.330978 4.454750 18,000 223 189 64
2019-03-18 16:17:56 GMT 47.333523 4.458196 18,000 223 189 0
2019-03-18 16:17:48 GMT 47.339668 4.466506 18,025 223 190 0
2019-03-18 16:17:39 GMT 47.345169 4.473839 18,000 223 188 0
2019-03-18 16:17:35 GMT 47.347366 4.476860 18,000 223 188 0
2019-03-18 16:17:30 GMT 47.350616 4.481255 18,000 223 189 0
2019-03-18 16:17:24 GMT 47.354233 4.486061 18,000 223 189 64
2019-03-18 16:17:18 GMT 47.358429 4.491788 18,000 223 189 64
2019-03-18 16:17:14 GMT 47.361008 4.495331 17,975 223 189 0
2019-03-18 16:17:09 GMT 47.364250 4.499606 18,025 223 189 0
2019-03-18 16:17:06 GMT 47.366364 4.502541 18,000 223 189 64
2019-03-18 16:17:03 GMT 47.367832 4.504465 17,975 223 189 0
2019-03-18 16:16:58 GMT 47.371078 4.508926 17,975 223 190 0
2019-03-18 16:16:52 GMT 47.375381 4.514763 17,975 223 190 0
2019-03-18 16:16:47 GMT 47.378540 4.519089 18,000 223 190 -64
2019-03-18 16:16:43 GMT 47.380447 4.521578 18,025 223 190 0
2019-03-18 16:16:39 GMT 47.384125 4.526578 18,025 223 190 0
2019-03-18 16:16:34 GMT 47.386597 4.530006 18,025 223 189 64
2019-03-18 16:16:31 GMT 47.392086 4.537424 18,000 223 189 -64
2019-03-18 16:16:26 GMT 47.394463 4.540593 18,000 223 189 0
2019-03-18 16:16:19 GMT 47.396507 4.543340 18,000 223 188 0
2019-03-18 16:16:13 GMT 47.400375 4.548615 18,025 223 188 0
2019-03-18 16:16:09 GMT 47.402748 4.551861 18,000 223 188 0
2019-03-18 16:16:02 GMT 47.407124 4.557636 18,025 222 188 0
2019-03-18 16:15:58 GMT 47.409916 4.561369 18,000 223 187 0
2019-03-18 16:15:53 GMT 47.413826 4.566580 18,000 223 188 64
2019-03-18 16:15:45 GMT 47.418228 4.572510 18,000 223 188 0
2019-03-18 16:15:41 GMT 47.420483 4.575524 18,000 223 188 0
2019-03-18 16:15:37 GMT 47.423790 4.579961 18,000 222 188 0
2019-03-18 16:15:34 GMT 47.425690 4.582466 18,000 222 188 64
2019-03-18 16:15:29 GMT 47.428864 4.586722 18,025 223 188 64
2019-03-18 16:15:21 GMT 47.434357 4.594116 17,975 223 189 -64
2019-03-18 16:15:11 GMT 47.440968 4.602849 17,975 222 189 -64
2019-03-18 16:14:59 GMT 47.448647 4.613131 18,000 222 189 -64
2019-03-18 16:14:52 GMT 47.453026 4.618765 18,025 222 189 0
2019-03-18 16:14:45 GMT 47.456654 4.623695 18,000 222 188 64
2019-03-18 16:14:41 GMT 47.459911 4.627991 18,000 222 188 64
2019-03-18 16:14:38 GMT 47.462128 4.630875 18,000 222 187 64
2019-03-18 16:14:28 GMT 47.468857 4.639801 18,000 222 188 64
2019-03-18 16:14:20 GMT 47.473507 4.646020 18,000 223 189 -64
2019-03-18 16:14:17 GMT 47.475677 4.649002 18,000 223 189 0
2019-03-18 16:14:07 GMT 47.481747 4.657076 18,000 223 189 -64
2019-03-18 16:13:58 GMT 47.487946 4.665413 18,000 223 189 64
2019-03-18 16:13:54 GMT 47.493988 4.673584 18,000 224 190 0
2019-03-18 16:13:48 GMT 47.493988 4.673584 18,000 223 189 0
2019-03-18 16:13:45 GMT 47.496552 4.677007 18,025 223 188 0
2019-03-18 16:13:36 GMT 47.501717 4.684049 18,000 223 188 0
2019-03-18 16:13:26 GMT 47.508224 4.692741 17,975 223 188 64
2019-03-18 16:13:14 GMT 47.515823 4.703110 18,025 223 188 0
2019-03-18 16:13:08 GMT 47.520103 4.708980 18,025 223 188 64
2019-03-18 16:13:04 GMT 47.522324 4.711967 18,000 224 190 0
2019-03-18 16:12:52 GMT 47.530346 4.723065 18,000 224 188 0
2019-03-18 16:12:44 GMT 47.535553 4.730095 18,000 223 188 -64
2019-03-18 16:12:32 GMT 47.542915 4.740319 18,000 224 188 0
2019-03-18 16:12:22 GMT 47.549103 4.748703 17,975 223 189 64
2019-03-18 16:12:12 GMT 47.555531 4.757573 17,975 224 190 -64
2019-03-18 16:11:59 GMT 47.564003 4.769193 18,000 223 191 0
2019-03-18 16:11:49 GMT 47.570522 4.778208 18,000 223 191 -64
2019-03-18 16:11:39 GMT 47.576900 4.786870 18,000 223 191 0
2019-03-18 16:11:28 GMT 47.584351 4.797043 18,000 223 189 0
2019-03-18 16:11:25 GMT 47.587189 4.800888 18,025 223 190 0
2019-03-18 16:11:19 GMT 47.590164 4.804939 18,000 223 189 64
2019-03-18 16:11:08 GMT 47.597427 4.814829 17,975 223 190 0
2019-03-18 16:10:58 GMT 47.603668 4.823273 18,000 223 190 0
2019-03-18 16:10:47 GMT 47.611023 4.833210 18,025 223 189 0
2019-03-18 16:10:41 GMT 47.614746 4.838173 18,025 223 189 64
2019-03-18 16:10:36 GMT 47.618145 4.842647 18,000 223 189 64
2019-03-18 16:10:25 GMT 47.625408 4.852506 17,975 223 189 64
2019-03-18 16:10:16 GMT 47.631226 4.860352 18,000 222 189 0
2019-03-18 16:10:03 GMT 47.639374 4.870995 18,000 222 189 -64
2019-03-18 16:09:52 GMT 47.646774 4.880676 18,000 222 188 0
2019-03-18 16:09:44 GMT 47.652100 4.887955 18,025 223 188 -64
2019-03-18 16:09:33 GMT 47.658787 4.897015 17,975 223 187 0
2019-03-18 16:09:29 GMT 47.661346 4.900520 17,975 223 188 0
2019-03-18 16:09:24 GMT 47.664871 4.905190 17,975 223 188 0
2019-03-18 16:09:13 GMT 47.671585 4.914410 18,000 223 188 64
2019-03-18 16:09:07 GMT 47.675766 4.920227 18,000 224 188 0
2019-03-18 16:09:01 GMT 47.679127 4.924903 17,975 224 188 -64
2019-03-18 16:08:51 GMT 47.685333 4.933548 17,975 224 188 0
2019-03-18 16:08:41 GMT 47.691650 4.942680 18,000 225 188 0
2019-03-18 16:08:31 GMT 47.698105 4.951950 18,000 225 188 0
2019-03-18 16:08:20 GMT 47.710464 4.970558 17,975 226 190 0
2019-03-18 16:08:11 GMT 47.710464 4.970558 17,975 226 190 64
2019-03-18 16:08:08 GMT 47.712112 4.973030 17,975 226 190 0
2019-03-18 16:07:59 GMT 47.717606 4.981133 18,025 225 190 0
2019-03-18 16:07:48 GMT 47.724655 4.991638 17,975 225 190 64
2019-03-18 16:07:37 GMT 47.732483 5.002899 18,000 224 191 0
2019-03-18 16:07:27 GMT 47.737877 5.010470 18,000 224 192 0
2019-03-18 16:07:15 GMT 47.748367 5.025146 18,000 224 191 0
2019-03-18 16:07:05 GMT 47.752262 5.030541 18,000 223 191 0
2019-03-18 16:07:01 GMT 47.755142 5.034554 18,000 223 191 0
2019-03-18 16:06:53 GMT 47.764114 5.047119 18,000 224 189 0
2019-03-18 16:06:45 GMT 47.765442 5.048973 18,000 224 189 0
2019-03-18 16:06:42 GMT 47.767857 5.052373 17,975 224 189 0
2019-03-18 16:06:34 GMT 47.772125 5.058449 17,975 225 189 0
2019-03-18 16:06:28 GMT 47.778580 5.067719 18,025 224 188 0
2019-03-18 16:06:24 GMT 47.778580 5.067719 18,000 225 188 0
2019-03-18 16:06:20 GMT 47.780891 5.071106 17,975 224 188 0
2019-03-18 16:06:15 GMT 47.784302 5.075958 17,975 224 188 0
2019-03-18 16:06:11 GMT 47.786682 5.079391 18,000 225 188 64
2019-03-18 16:06:03 GMT 47.791504 5.086388 17,975 225 188 0
2019-03-18 16:05:59 GMT 47.794098 5.090172 17,975 224 188 0
2019-03-18 16:05:51 GMT 47.799000 5.097234 18,000 224 188 0
2019-03-18 16:05:48 GMT 47.801285 5.100540 18,025 224 188 -64
2019-03-18 16:05:45 GMT 47.803143 5.103149 18,025 224 188 -64
2019-03-18 16:05:42 GMT 47.804901 5.105690 18,000 225 188 -64
2019-03-18 16:05:30 GMT 47.815525 5.120685 18,000 224 187 0
2019-03-18 16:05:20 GMT 47.818726 5.125191 18,000 224 187 0
2019-03-18 16:05:14 GMT 47.825581 5.134700 18,025 224 188 0
2019-03-18 16:05:08 GMT 47.825813 5.135052 18,025 224 188 0
2019-03-18 16:05:04 GMT 47.828793 5.139137 17,975 223 188 64
2019-03-18 16:04:57 GMT 47.833282 5.145241 17,975 223 189 0
2019-03-18 16:04:54 GMT 47.834885 5.147507 17,975 223 189 0
2019-03-18 16:04:47 GMT 47.839409 5.153644 18,025 223 189 0
2019-03-18 16:04:43 GMT 47.842529 5.157806 18,000 223 189 0
2019-03-18 16:04:38 GMT 47.845272 5.161532 18,025 223 189 64
2019-03-18 16:04:28 GMT 47.851837 5.170405 18,000 222 189 -64
2019-03-18 16:04:20 GMT 47.858028 5.178575 17,975 233 186 0
2019-03-18 16:04:15 GMT 47.861664 5.183350 18,000 223 189 0
2019-03-18 16:04:07 GMT 47.865555 5.188637 18,025 223 188 0
2019-03-18 16:04:01 GMT 47.870224 5.194954 18,000 223 188 64
2019-03-18 16:03:57 GMT 47.877579 5.205055 17,975 223 188 64
2019-03-18 16:03:50 GMT 47.877579 5.205055 17,975 223 188 64
2019-03-18 16:03:45 GMT 47.879654 5.207863 17,975 223 189 0
2019-03-18 16:03:40 GMT 47.883678 5.213365 18,000 223 188 0
2019-03-18 16:03:36 GMT 47.885559 5.215897 18,000 223 189 0
2019-03-18 16:03:28 GMT 47.890846 5.223295 18,025 224 189 0
2019-03-18 16:03:25 GMT 47.892380 5.225510 18,000 224 189 -64
2019-03-18 16:03:20 GMT 47.900299 5.236887 18,000 225 189 -64
2019-03-18 16:03:13 GMT 47.900299 5.236887 18,000 225 188 -128
2019-03-18 16:03:09 GMT 47.902580 5.240197 18,000 230 186 0
2019-03-18 16:03:00 GMT 47.907852 5.248787 18,000 229 187 0
2019-03-18 16:02:57 GMT 47.909561 5.251887 18,000 230 186 128
2019-03-18 16:02:54 GMT 47.911423 5.255338 18,025 234 186 64
2019-03-18 16:02:41 GMT 47.917709 5.267733 17,975 233 186 0
2019-03-18 16:02:32 GMT 47.922958 5.277763 18,000 232 186 64
2019-03-18 16:02:28 GMT 47.924881 5.281403 18,000 232 186 64
2019-03-18 16:02:20 GMT 47.929440 5.289987 18,000 232 186 64
2019-03-18 16:02:13 GMT 47.932697 5.296255 17,975 232 186 64
2019-03-18 16:02:06 GMT 47.936829 5.304268 17,975 234 188 -128
2019-03-18 16:01:59 GMT 47.940491 5.311615 17,975 234 188 -64
2019-03-18 16:01:52 GMT 47.943695 5.318001 17,975 234 187 -64
2019-03-18 16:01:25 GMT 47.960632 5.351234 18,000 233 184 0
2019-03-18 16:01:13 GMT 47.964340 5.358444 18,000 233 184 0
2019-03-18 16:01:04 GMT 47.968964 5.367385 18,000 233 186 64
2019-03-18 16:01:00 GMT 47.971245 5.371821 18,000 233 186 64
2019-03-18 16:00:50 GMT 47.976196 5.381447 17,975 234 186 0
2019-03-18 16:00:43 GMT 47.979809 5.388583 17,975 233 186 -64
2019-03-18 16:00:39 GMT 47.981964 5.392708 18,000 233 186 -128
2019-03-18 16:00:31 GMT 47.986130 5.400810 18,025 233 186 -64
2019-03-18 16:00:27 GMT 47.987907 5.404358 18,025 233 185 64
2019-03-18 16:00:22 GMT 47.990799 5.410011 18,000 233 185 0
2019-03-18 16:00:16 GMT 47.993591 5.415504 17,975 233 185 64
2019-03-18 16:00:11 GMT 47.996334 5.420767 18,000 233 185 0
2019-03-18 16:00:05 GMT 47.999779 5.427598 18,025 233 186 -64
2019-03-18 15:59:55 GMT 48.004993 5.437669 18,000 233 186 0
2019-03-18 15:59:47 GMT 48.008652 5.444962 17,975 233 187 64
2019-03-18 15:59:44 GMT 48.011044 5.449641 17,975 233 186 64
2019-03-18 15:59:40 GMT 48.012268 5.452034 17,975 234 186 -64
2019-03-18 15:59:33 GMT 48.016342 5.459862 18,000 233 186 64
2019-03-18 15:59:30 GMT 48.018028 5.463233 18,000 233 187 -64
2019-03-18 15:59:20 GMT 48.023289 5.473515 18,000 233 186 -64
2019-03-18 15:59:09 GMT 48.028919 5.484502 18,000 234 186 128
2019-03-18 15:59:06 GMT 48.030552 5.487741 18,000 233 187 64
2019-03-18 15:58:57 GMT 48.035248 5.496941 18,000 233 186 0
2019-03-18 15:58:53 GMT 48.036880 5.500066 18,000 233 187 0
2019-03-18 15:58:48 GMT 48.040100 5.506416 17,975 234 187 -64
2019-03-18 15:58:44 GMT 48.041382 5.509026 18,000 233 187 0
2019-03-18 15:58:37 GMT 48.045403 5.516756 18,000 233 187 0
2019-03-18 15:58:33 GMT 48.048473 5.522883 18,000 233 187 0
2019-03-18 15:58:29 GMT 48.050354 5.526535 18,000 233 187 0
2019-03-18 15:58:25 GMT 48.052616 5.531053 18,000 234 187 64
2019-03-18 15:58:17 GMT 48.056213 5.538071 18,000 234 187 0
2019-03-18 15:58:12 GMT 48.058666 5.542884 17,975 234 187 -64
2019-03-18 15:58:09 GMT 48.060017 5.545560 18,000 234 187 0
2019-03-18 15:58:03 GMT 48.063698 5.552814 18,000 234 187 0
2019-03-18 15:57:59 GMT 48.065510 5.556476 18,000 234 187 0
2019-03-18 15:57:51 GMT 48.069141 5.563660 18,025 233 188 0
2019-03-18 15:57:48 GMT 48.071045 5.567322 18,000 233 188 0
2019-03-18 15:57:43 GMT 48.073704 5.572604 18,000 234 189 0
2019-03-18 15:57:38 GMT 48.076683 5.578590 18,000 234 190 -64
2019-03-18 15:57:35 GMT 48.082970 5.591055 18,000 233 189 0
2019-03-18 15:57:26 GMT 48.082970 5.591055 18,000 234 190 64
2019-03-18 15:57:20 GMT 48.086060 5.597191 18,000 233 190 64
2019-03-18 15:57:14 GMT 48.089264 5.603645 18,000 234 190 0
2019-03-18 15:57:09 GMT 48.091370 5.607697 18,000 233 189 0
2019-03-18 15:57:06 GMT 48.093292 5.611610 18,000 234 189 0
2019-03-18 15:56:59 GMT 48.096771 5.618614 17,975 233 189 0
2019-03-18 15:56:54 GMT 48.099564 5.624039 18,000 234 189 0
2019-03-18 15:56:51 GMT 48.101265 5.627465 18,025 234 188 0
2019-03-18 15:56:48 GMT 48.102310 5.629601 18,025 234 188 0
2019-03-18 15:56:45 GMT 48.104477 5.633944 18,000 234 188 0
2019-03-18 15:56:42 GMT 48.105927 5.636810 18,000 233 189 0
2019-03-18 15:56:32 GMT 48.111649 5.648140 17,975 233 188 -64
2019-03-18 15:56:29 GMT 48.113182 5.651128 18,000 234 186 -64
2019-03-18 15:56:26 GMT 48.114258 5.653290 18,000 234 187 -64
2019-03-18 15:56:23 GMT 48.118397 5.661480 18,000 233 186 -64
2019-03-18 15:56:20 GMT 48.121719 5.668053 18,000 233 184 64
2019-03-18 15:56:12 GMT 48.121719 5.668053 18,025 233 184 0
2019-03-18 15:56:09 GMT 48.123238 5.671058 18,025 233 183 64
2019-03-18 15:56:05 GMT 48.127007 5.678312 18,000 233 182 64
2019-03-18 15:56:02 GMT 48.127007 5.678312 18,000 233 181 0
2019-03-18 15:55:56 GMT 48.130314 5.684791 17,975 234 181 64
2019-03-18 15:55:52 GMT 48.133709 5.691411 18,025 233 180 0
2019-03-18 15:55:48 GMT 48.133709 5.691411 18,000 233 181 -64
2019-03-18 15:55:44 GMT 48.135910 5.695724 18,000 233 180 0
2019-03-18 15:55:41 GMT 48.137386 5.698594 18,000 233 180 64
2019-03-18 15:55:38 GMT 48.138737 5.701200 18,000 233 180 0
2019-03-18 15:55:34 GMT 48.141495 5.706642 17,975 234 181 64
2019-03-18 15:55:30 GMT 48.143112 5.709792 17,975 233 180 0
2019-03-18 15:55:23 GMT 48.146839 5.717116 17,975 234 181 0
2019-03-18 15:55:16 GMT 48.150234 5.723807 17,975 233 181 0
2019-03-18 15:55:10 GMT 48.153214 5.729576 18,000 233 182 64
2019-03-18 15:55:06 GMT 48.155079 5.733244 18,000 233 182 0
2019-03-18 15:55:02 GMT 48.159439 5.741867 18,000 234 182 -64
2019-03-18 15:54:58 GMT 48.159439 5.741867 18,000 234 182 -64
2019-03-18 15:54:52 GMT 48.162598 5.748033 17,975 233 183 0
2019-03-18 15:54:48 GMT 48.164474 5.751765 17,975 233 183 0
2019-03-18 15:54:44 GMT 48.166668 5.756041 18,000 234 183 0
2019-03-18 15:54:41 GMT 48.168274 5.759230 18,000 233 184 0
2019-03-18 15:54:37 GMT 48.170628 5.763919 18,000 233 184 0
2019-03-18 15:54:31 GMT 48.173607 5.769702 18,000 233 184 0
2019-03-18 15:54:28 GMT 48.174820 5.772189 17,975 234 185 0
2019-03-18 15:54:25 GMT 48.176399 5.775267 17,975 234 185 -64
2019-03-18 15:54:19 GMT 48.179718 5.781766 18,000 233 185 -128
2019-03-18 15:54:14 GMT 48.182404 5.786976 18,000 233 184 0
2019-03-18 15:54:05 GMT 48.186687 5.795433 18,000 233 184 64
2019-03-18 15:54:02 GMT 48.190365 5.802588 18,025 233 185 0
2019-03-18 15:53:58 GMT 48.190365 5.802588 18,025 233 184 64
2019-03-18 15:53:53 GMT 48.193039 5.807753 17,975 233 185 0
2019-03-18 15:53:50 GMT 48.194458 5.810429 17,975 233 185 0
2019-03-18 15:53:43 GMT 48.198139 5.817550 18,000 232 185 -64
2019-03-18 15:53:37 GMT 48.201817 5.824489 18,000 233 185 0
2019-03-18 15:53:34 GMT 48.202972 5.826768 18,000 233 185 0
2019-03-18 15:53:29 GMT 48.208382 5.837065 18,000 232 185 -64
2019-03-18 15:53:24 GMT 48.208382 5.837065 18,000 232 185 -64
2019-03-18 15:53:17 GMT 48.212402 5.844656 18,000 232 184 -64
2019-03-18 15:53:12 GMT 48.213921 5.847618 18,000 233 184 0
2019-03-18 15:53:03 GMT 48.219692 5.858604 18,000 232 185 0
2019-03-18 15:52:54 GMT 48.224209 5.867133 17,975 232 184 64
2019-03-18 15:52:50 GMT 48.225929 5.870385 18,000 233 184 64
2019-03-18 15:52:42 GMT 48.230713 5.879728 17,975 233 185 0
2019-03-18 15:52:34 GMT 48.234604 5.887263 18,000 233 184 -64
2019-03-18 15:52:31 GMT 48.236172 5.890262 18,000 233 184 0
2019-03-18 15:52:21 GMT 48.241199 5.900309 18,000 233 184 -64
2019-03-18 15:52:14 GMT 48.245087 5.907828 17,975 233 184 0
2019-03-18 15:52:08 GMT 48.247879 5.913532 18,000 234 183 0
2019-03-18 15:52:04 GMT 48.249905 5.917656 18,000 234 183 0
2019-03-18 15:52:00 GMT 48.252182 5.922265 18,000 234 182 64
2019-03-18 15:51:56 GMT 48.253922 5.925716 18,000 235 182 0
2019-03-18 15:51:52 GMT 48.258133 5.934519 18,025 235 182 64
2019-03-18 15:51:47 GMT 48.258133 5.934519 18,025 235 182 0
2019-03-18 15:51:44 GMT 48.259632 5.937604 18,000 236 181 -64
2019-03-18 15:51:41 GMT 48.261292 5.941139 17,975 235 182 0
2019-03-18 15:51:37 GMT 48.263546 5.945844 18,000 236 181 0
2019-03-18 15:51:34 GMT 48.265045 5.949026 18,000 236 181 0
2019-03-18 15:51:31 GMT 48.266247 5.951771 18,000 236 181 64
2019-03-18 15:51:28 GMT 48.267609 5.954731 18,000 236 181 0
2019-03-18 15:51:23 GMT 48.269760 5.959379 18,000 236 181 64
2019-03-18 15:51:20 GMT 48.271179 5.962548 18,025 236 181 0
2019-03-18 15:51:17 GMT 48.272598 5.965647 18,000 237 181 0
2019-03-18 15:51:13 GMT 48.274765 5.970563 18,000 237 181 0
2019-03-18 15:51:10 GMT 48.276123 5.973745 17,975 236 182 0
2019-03-18 15:51:07 GMT 48.277229 5.976129 17,975 237 180 64
2019-03-18 15:51:02 GMT 48.279831 5.982056 17,975 237 181 64
2019-03-18 15:50:59 GMT 48.281235 5.985236 17,975 236 182 0
2019-03-18 15:50:52 GMT 48.284409 5.992197 17,975 236 182 0
2019-03-18 15:50:46 GMT 48.287102 5.998101 18,000 236 183 64
2019-03-18 15:50:42 GMT 48.289566 6.003522 18,025 236 183 -64
2019-03-18 15:50:35 GMT 48.292873 6.010461 17,975 234 184 -64
2019-03-18 15:50:31 GMT 48.294708 6.014170 18,025 233 185 -128
2019-03-18 15:50:25 GMT 48.298504 6.021881 18,000 233 185 -128
2019-03-18 15:50:21 GMT 48.299515 6.023818 18,000 232 185 -64
2019-03-18 15:50:18 GMT 48.301575 6.027691 18,025 232 185 0
2019-03-18 15:50:14 GMT 48.303452 6.031142 18,025 231 186 64
2019-03-18 15:50:11 GMT 48.305393 6.034602 18,000 231 186 64
2019-03-18 15:50:04 GMT 48.309120 6.041035 17,975 228 186 0
2019-03-18 15:50:00 GMT 48.311356 6.044721 17,975 226 188 64
2019-03-18 15:49:54 GMT 48.315308 6.050931 17,975 225 189 0
2019-03-18 15:49:50 GMT 48.318150 6.055057 18,000 224 189 -64
2019-03-18 15:49:41 GMT 48.325737 6.064309 18,025 217 192 0
2019-03-18 15:49:38 GMT 48.329323 6.068284 18,000 217 191 0
2019-03-18 15:49:33 GMT 48.329323 6.068284 18,000 217 192 0
2019-03-18 15:49:27 GMT 48.333279 6.072693 18,000 217 191 0
2019-03-18 15:49:21 GMT 48.338242 6.078116 17,975 217 193 0
2019-03-18 15:49:17 GMT 48.341007 6.081149 18,000 217 193 -64
2019-03-18 15:49:12 GMT 48.344376 6.084947 18,000 217 192 64
2019-03-18 15:49:09 GMT 48.345802 6.086570 18,000 217 193 0
2019-03-18 15:49:05 GMT 48.349899 6.091124 17,975 217 193 -64
2019-03-18 15:48:59 GMT 48.354134 6.095750 17,975 217 193 -64
2019-03-18 15:48:54 GMT 48.357788 6.099807 17,975 217 193 0
2019-03-18 15:48:51 GMT 48.359257 6.101532 18,000 217 193 -64
2019-03-18 15:48:48 GMT 48.361588 6.104103 18,000 217 193 -64
2019-03-18 15:48:43 GMT 48.365540 6.108543 18,000 217 193 -64
2019-03-18 15:48:40 GMT 48.367767 6.110934 18,025 217 193 64
2019-03-18 15:48:36 GMT 48.370148 6.113602 18,025 217 192 0
2019-03-18 15:48:33 GMT 48.372528 6.116286 18,000 217 192 0
2019-03-18 15:48:29 GMT 48.375084 6.119096 18,000 217 192 0
2019-03-18 15:48:26 GMT 48.377243 6.121568 18,000 217 192 -64
2019-03-18 15:48:23 GMT 48.379166 6.123681 17,975 217 192 0
2019-03-18 15:48:19 GMT 48.382580 6.127408 17,975 217 191 128
2019-03-18 15:48:16 GMT 48.384384 6.129456 17,975 217 192 128
2019-03-18 15:48:13 GMT 48.386536 6.131889 17,975 217 192 128
2019-03-18 15:48:08 GMT 48.389694 6.135371 17,975 217 192 0
2019-03-18 15:48:04 GMT 48.392807 6.138822 17,975 217 192 0
2019-03-18 15:48:01 GMT 48.396080 6.142442 18,000 217 192 0
2019-03-18 15:47:58 GMT 48.397202 6.143681 18,025 219 184 0
2019-03-18 15:47:55 GMT 48.399570 6.146345 18,025 217 193 -64
2019-03-18 15:47:52 GMT 48.402130 6.149163 18,025 217 192 -64
2019-03-18 15:47:48 GMT 48.404644 6.151982 18,000 217 193 -64
2019-03-18 15:47:45 GMT 48.407181 6.154668 18,000 217 192 0
2019-03-18 15:47:41 GMT 48.413071 6.161234 18,000 217 192 0
2019-03-18 15:47:37 GMT 48.413071 6.161234 18,000 217 192 0
2019-03-18 15:47:34 GMT 48.414608 6.162969 18,000 217 191 0
2019-03-18 15:47:30 GMT 48.417984 6.166710 18,000 217 192 -64
2019-03-18 15:47:26 GMT 48.419952 6.168823 18,025 216 192 0
2019-03-18 15:47:23 GMT 48.422565 6.171714 18,025 217 191 64
2019-03-18 15:47:16 GMT 48.427689 6.177352 17,975 217 192 64
2019-03-18 15:47:13 GMT 48.430107 6.180099 17,975 218 185 64
2019-03-18 15:47:10 GMT 48.435928 6.186459 17,975 217 193 64
2019-03-18 15:47:05 GMT 48.435928 6.186459 17,975 217 193 0
2019-03-18 15:47:01 GMT 48.438858 6.189669 17,975 217 193 -64
2019-03-18 15:46:55 GMT 48.442932 6.194176 18,000 217 194 -64
2019-03-18 15:46:49 GMT 48.446819 6.198457 18,000 216 194 0
2019-03-18 15:46:43 GMT 48.451355 6.203402 18,025 216 194 -64
2019-03-18 15:46:38 GMT 48.457260 6.209952 18,000 216 192 0
2019-03-18 15:46:32 GMT 48.459156 6.211973 18,000 216 192 0
2019-03-18 15:46:29 GMT 48.461300 6.214286 18,000 216 192 64
2019-03-18 15:46:24 GMT 48.465042 6.218403 18,000 217 192 0
2019-03-18 15:46:20 GMT 48.467911 6.221587 18,000 216 192 0
2019-03-18 15:46:15 GMT 48.472752 6.226935 18,000 218 185 0
2019-03-18 15:46:11 GMT 48.474285 6.228598 18,000 216 192 64
2019-03-18 15:46:07 GMT 48.476986 6.231561 17,975 216 192 0
2019-03-18 15:46:03 GMT 48.480286 6.235164 17,975 216 192 0
2019-03-18 15:46:00 GMT 48.481922 6.236910 17,975 216 192 64
2019-03-18 15:45:56 GMT 48.485088 6.240379 17,975 217 193 0
2019-03-18 15:45:50 GMT 48.489414 6.245222 17,975 217 192 0
2019-03-18 15:45:47 GMT 48.491501 6.247629 18,000 217 192 0
2019-03-18 15:45:39 GMT 48.496857 6.253686 18,000 217 193 -64
2019-03-18 15:45:35 GMT 48.500153 6.257348 18,000 217 193 -128
2019-03-18 15:45:29 GMT 48.504364 6.261996 18,000 217 193 64
2019-03-18 15:45:26 GMT 48.506470 6.264390 18,000 217 193 64
2019-03-18 15:45:19 GMT 48.511826 6.270447 17,975 217 192 64
2019-03-18 15:45:16 GMT 48.514786 6.273772 18,000 219 187 0
2019-03-18 15:45:10 GMT 48.517731 6.277137 18,025 217 194 0
2019-03-18 15:45:07 GMT 48.520294 6.279954 18,000 217 194 0
2019-03-18 15:45:04 GMT 48.523773 6.283891 17,975 217 194 0
2019-03-18 15:44:58 GMT 48.526382 6.286785 17,975 217 195 0
2019-03-18 15:44:54 GMT 48.529591 6.290468 17,975 218 195 -128
2019-03-18 15:44:50 GMT 48.534153 6.295600 17,975 217 196 -64
2019-03-18 15:44:44 GMT 48.536621 6.298419 18,000 217 195 -64
2019-03-18 15:44:41 GMT 48.539787 6.301960 18,000 219 190 64
2019-03-18 15:44:37 GMT 48.542084 6.304533 17,975 218 195 64
2019-03-18 15:44:34 GMT 48.543915 6.306575 17,975 217 195 0
2019-03-18 15:44:31 GMT 48.546661 6.309674 18,000 217 195 0
2019-03-18 15:44:26 GMT 48.549606 6.312947 18,000 217 195 64
2019-03-18 15:44:23 GMT 48.552155 6.315871 18,000 217 196 64
2019-03-18 15:44:18 GMT 48.559616 6.324222 18,000 217 195 -128
2019-03-18 15:44:13 GMT 48.559616 6.324222 18,000 217 195 -128
2019-03-18 15:44:07 GMT 48.563370 6.328407 18,000 217 194 0
2019-03-18 15:44:04 GMT 48.566025 6.331435 18,000 218 194 64
2019-03-18 15:43:57 GMT 48.571198 6.337280 18,000 217 193 64
2019-03-18 15:43:54 GMT 48.574997 6.341576 18,025 217 194 -64
2019-03-18 15:43:44 GMT 48.580353 6.347562 18,000 218 194 0
2019-03-18 15:43:40 GMT 48.585732 6.353712 18,000 218 194 -64
2019-03-18 15:43:36 GMT 48.585732 6.353712 18,000 218 194 -64
2019-03-18 15:43:33 GMT 48.587585 6.355802 18,000 219 186 64
2019-03-18 15:43:30 GMT 48.593601 6.362674 17,975 218 194 64
2019-03-18 15:43:25 GMT 48.593601 6.362674 18,000 218 194 0
2019-03-18 15:43:22 GMT 48.595734 6.365169 18,000 218 194 0
2019-03-18 15:43:19 GMT 48.597794 6.367493 18,000 217 195 0
2019-03-18 15:43:15 GMT 48.600815 6.370914 18,000 218 195 64
2019-03-18 15:43:12 GMT 48.603149 6.373549 18,000 218 195 -64
2019-03-18 15:43:08 GMT 48.606903 6.377916 17,975 219 189 -64
2019-03-18 15:43:04 GMT 48.609146 6.380521 17,975 218 196 -64
2019-03-18 15:43:01 GMT 48.610703 6.382282 17,975 217 196 0
2019-03-18 15:42:58 GMT 48.616318 6.388694 18,025 218 194 -64
2019-03-18 15:42:54 GMT 48.616318 6.388694 18,000 217 196 -64
2019-03-18 15:42:51 GMT 48.617714 6.390284 18,000 218 194 -64
2019-03-18 15:42:48 GMT 48.620361 6.393339 18,025 218 194 -64
2019-03-18 15:42:43 GMT 48.623905 6.397368 18,025 218 194 0
2019-03-18 15:42:40 GMT 48.626221 6.400029 18,000 217 195 0
2019-03-18 15:42:37 GMT 48.628464 6.402494 18,000 217 194 0
2019-03-18 15:42:34 GMT 48.630470 6.404812 18,000 217 194 64
2019-03-18 15:42:31 GMT 48.633362 6.407987 17,975 217 193 64
2019-03-18 15:42:28 GMT 48.634918 6.409818 17,975 217 193 0
2019-03-18 15:42:22 GMT 48.638992 6.414396 17,975 217 193 -64
2019-03-18 15:42:19 GMT 48.641144 6.416790 17,975 217 193 0
2019-03-18 15:42:16 GMT 48.643112 6.418973 17,975 216 192 0
2019-03-18 15:42:11 GMT 48.648251 6.424617 18,000 218 185 -64
2019-03-18 15:42:05 GMT 48.650757 6.427354 18,000 217 191 0
2019-03-18 15:42:02 GMT 48.653595 6.430523 18,025 217 190 0
2019-03-18 15:41:59 GMT 48.658073 6.435531 18,000 217 190 64
2019-03-18 15:41:55 GMT 48.661800 6.439723 17,975 217 190 0
2019-03-18 15:41:50 GMT 48.661800 6.439723 17,975 217 190 64
2019-03-18 15:41:47 GMT 48.663567 6.441674 17,975 217 190 0
2019-03-18 15:41:44 GMT 48.665897 6.444204 18,000 217 190 0
2019-03-18 15:41:41 GMT 48.670853 6.449749 18,025 217 190 64
2019-03-18 15:41:37 GMT 48.670853 6.449749 18,000 217 190 -64
2019-03-18 15:41:34 GMT 48.675476 6.454890 18,025 217 190 0
2019-03-18 15:41:31 GMT 48.675476 6.454890 18,025 217 189 64
2019-03-18 15:41:28 GMT 48.677124 6.456721 18,000 217 190 64
2019-03-18 15:41:24 GMT 48.682842 6.463069 17,975 217 190 64
2019-03-18 15:41:20 GMT 48.682842 6.463069 17,975 217 191 0
2019-03-18 15:41:17 GMT 48.684937 6.465526 17,975 217 191 -64
2019-03-18 15:41:13 GMT 48.688065 6.468975 17,975 217 191 -64
2019-03-18 15:41:09 GMT 48.690941 6.472176 17,975 217 191 0
2019-03-18 15:41:05 GMT 48.693878 6.475454 18,000 217 191 0
2019-03-18 15:41:01 GMT 48.699554 6.481934 18,025 217 191 -64
2019-03-18 15:40:57 GMT 48.699554 6.481934 18,025 217 190 0
2019-03-18 15:40:52 GMT 48.702759 6.485525 18,000 217 190 0
2019-03-18 15:40:48 GMT 48.705978 6.489161 18,000 217 191 0
2019-03-18 15:40:45 GMT 48.707336 6.490666 18,000 218 190 0
2019-03-18 15:40:42 GMT 48.709763 6.493483 18,000 217 190 64
2019-03-18 15:40:35 GMT 48.714451 6.498774 17,975 217 190 64
2019-03-18 15:40:32 GMT 48.717335 6.502027 18,025 217 190 0
2019-03-18 15:40:25 GMT 48.721939 6.507146 17,975 217 191 0
2019-03-18 15:40:22 GMT 48.724411 6.509833 18,000 217 190 0
2019-03-18 15:40:19 GMT 48.725948 6.511568 18,000 217 190 0
2019-03-18 15:40:14 GMT 48.729717 6.515832 18,025 217 190 0
2019-03-18 15:40:09 GMT 48.733200 6.519752 18,025 217 190 0
2019-03-18 15:40:06 GMT 48.735397 6.522120 18,000 217 191 64
2019-03-18 15:40:03 GMT 48.737492 6.524433 17,975 217 189 128
2019-03-18 15:40:00 GMT 48.742630 6.530245 18,000 217 190 -64
2019-03-18 15:39:56 GMT 48.742630 6.530245 18,000 217 190 -64
2019-03-18 15:39:51 GMT 48.745880 6.533907 18,000 217 190 -64
2019-03-18 15:39:48 GMT 48.748123 6.536302 18,025 217 190 0
2019-03-18 15:39:44 GMT 48.750824 6.539330 18,000 217 190 64
2019-03-18 15:39:41 GMT 48.753021 6.541725 18,025 217 190 64
2019-03-18 15:39:37 GMT 48.755974 6.545033 18,000 217 190 64
2019-03-18 15:39:32 GMT 48.759567 6.549119 17,975 217 191 64
2019-03-18 15:39:28 GMT 48.762306 6.552261 17,975 217 195 -64
2019-03-18 15:39:25 GMT 48.765240 6.555513 17,975 217 192 -64
2019-03-18 15:39:20 GMT 48.770592 6.561440 17,975 217 193 0
2019-03-18 15:39:17 GMT 48.770592 6.561440 17,975 217 193 0
2019-03-18 15:39:14 GMT 48.772453 6.563536 17,975 217 193 64
2019-03-18 15:39:11 GMT 48.774967 6.566355 17,975 217 193 64
2019-03-18 15:39:07 GMT 48.780945 6.573064 18,000 217 193 0
2019-03-18 15:39:00 GMT 48.782417 6.574811 18,025 217 194 -64
2019-03-18 15:38:57 GMT 48.785442 6.578209 18,000 217 195 0
2019-03-18 15:38:54 GMT 48.787125 6.580036 17,975 217 195 0
2019-03-18 15:38:50 GMT 48.789688 6.582923 17,975 217 195 0
2019-03-18 15:38:46 GMT 48.792706 6.586304 17,975 217 195 -64
2019-03-18 15:38:42 GMT 48.795639 6.589684 17,975 217 195 -64
2019-03-18 15:38:39 GMT 48.797699 6.592008 17,975 217 195 -64
2019-03-18 15:38:35 GMT 48.800526 6.595122 17,975 217 195 0
2019-03-18 15:38:32 GMT 48.804993 6.600181 17,975 217 196 -64
2019-03-18 15:38:25 GMT 48.807999 6.603628 18,000 217 195 -64
2019-03-18 15:38:21 GMT 48.811001 6.606975 18,000 217 196 0
2019-03-18 15:38:18 GMT 48.812347 6.608493 18,000 217 196 64
2019-03-18 15:38:14 GMT 48.816650 6.613417 18,025 217 195 0
2019-03-18 15:38:11 GMT 48.820404 6.617600 18,025 217 195 0
2019-03-18 15:38:07 GMT 48.820404 6.617600 18,000 217 195 -64
2019-03-18 15:38:03 GMT 48.823521 6.621142 18,000 217 194 0
2019-03-18 15:37:59 GMT 48.828964 6.627221 18,000 217 192 0
2019-03-18 15:37:52 GMT 48.831573 6.630249 18,000 217 192 -64
2019-03-18 15:37:49 GMT 48.833817 6.632714 18,000 217 191 0
2019-03-18 15:37:46 GMT 48.838531 6.638066 18,000 217 190 -64
2019-03-18 15:37:43 GMT 48.838531 6.638066 18,000 217 191 0
2019-03-18 15:37:40 GMT 48.844841 6.645211 18,025 217 190 64
2019-03-18 15:37:35 GMT 48.844841 6.645211 18,000 218 190 0
2019-03-18 15:37:32 GMT 48.845856 6.646376 18,000 218 190 -64
2019-03-18 15:37:29 GMT 48.847729 6.648535 18,000 217 190 -64
2019-03-18 15:37:25 GMT 48.852859 6.654334 18,000 218 191 -64
2019-03-18 15:37:22 GMT 48.852859 6.654334 18,000 218 191 64
2019-03-18 15:37:19 GMT 48.855225 6.656992 17,975 218 190 64
2019-03-18 15:37:15 GMT 48.857643 6.659883 17,975 218 191 64
2019-03-18 15:37:11 GMT 48.861145 6.663983 17,975 218 191 0
2019-03-18 15:37:07 GMT 48.863323 6.666533 17,975 218 191 0
2019-03-18 15:37:04 GMT 48.865093 6.668557 18,000 218 191 0
2019-03-18 15:36:59 GMT 48.869514 6.673688 18,000 218 191 0
2019-03-18 15:36:54 GMT 48.872261 6.676869 18,000 218 191 0
2019-03-18 15:36:49 GMT 48.875984 6.681205 18,000 218 191 0
2019-03-18 15:36:46 GMT 48.878082 6.683702 18,000 219 191 0
2019-03-18 15:36:43 GMT 48.879913 6.685814 18,000 219 191 -64
2019-03-18 15:36:37 GMT 48.884457 6.691252 18,000 219 191 64
2019-03-18 15:36:33 GMT 48.891907 6.700359 18,000 218 192 0
2019-03-18 15:36:26 GMT 48.891907 6.700359 18,000 220 191 64
2019-03-18 15:36:22 GMT 48.894421 6.703395 17,975 219 192 64
2019-03-18 15:36:18 GMT 48.897537 6.707224 17,975 219 192 -64
2019-03-18 15:36:15 GMT 48.899773 6.709900 17,975 219 192 -64
2019-03-18 15:36:12 GMT 48.901566 6.712083 17,975 219 192 -64
2019-03-18 15:36:08 GMT 48.904613 6.715754 17,975 219 193 -64
2019-03-18 15:36:04 GMT 48.907829 6.719585 18,000 219 193 -64
2019-03-18 15:36:01 GMT 48.909302 6.721379 18,000 219 192 -64
2019-03-18 15:35:57 GMT 48.912575 6.725295 18,000 219 192 0
2019-03-18 15:35:54 GMT 48.915024 6.728281 18,000 219 192 0
2019-03-18 15:35:51 GMT 48.916534 6.730112 18,000 219 192 0
2019-03-18 15:35:44 GMT 48.921158 6.735676 18,025 219 192 64
2019-03-18 15:35:40 GMT 48.923981 6.739028 18,000 219 192 64
2019-03-18 15:35:35 GMT 48.927887 6.743704 17,975 218 192 0
2019-03-18 15:35:32 GMT 48.930500 6.746762 17,975 218 193 0
2019-03-18 15:35:29 GMT 48.931618 6.748063 17,975 218 193 0
2019-03-18 15:35:24 GMT 48.935665 6.752689 17,975 217 193 -64
2019-03-18 15:35:21 GMT 48.937592 6.754902 18,000 217 193 0
2019-03-18 15:35:18 GMT 48.940273 6.757893 18,000 218 185 0
2019-03-18 15:35:14 GMT 48.942787 6.760712 18,000 217 193 64
2019-03-18 15:35:11 GMT 48.944466 6.762591 18,025 217 193 -256
2019-03-18 15:35:07 GMT 48.947769 6.766205 18,025 217 193 -384
2019-03-18 15:35:04 GMT 48.949585 6.768156 18,025 214 192 128
2019-03-18 15:35:01 GMT 48.952560 6.771311 18,050 215 193 0
2019-03-18 15:34:56 GMT 48.956196 6.775095 18,050 214 192 0
2019-03-18 15:34:50 GMT 48.960197 6.779215 18,025 214 192 64
2019-03-18 15:34:47 GMT 48.962387 6.781456 18,000 213 193 -64
2019-03-18 15:34:42 GMT 48.965836 6.784903 18,000 214 193 0
2019-03-18 15:34:39 GMT 48.968216 6.787227 18,000 213 194 -128
2019-03-18 15:34:36 GMT 48.970276 6.789269 18,025 213 194 -64
2019-03-18 15:34:31 GMT 48.974213 6.793092 18,000 213 193 -64
2019-03-18 15:34:28 GMT 48.976585 6.795405 18,025 213 193 -64
2019-03-18 15:34:24 GMT 48.979286 6.797935 18,025 213 193 -64
2019-03-18 15:34:21 GMT 48.981846 6.800393 18,025 212 193 0
2019-03-18 15:34:18 GMT 48.983963 6.802439 18,025 212 193 64
2019-03-18 15:34:15 GMT 48.989807 6.807982 18,025 213 194 128
2019-03-18 15:34:10 GMT 48.989807 6.807982 18,025 213 194 128
2019-03-18 15:34:07 GMT 48.992569 6.810608 18,025 213 194 0
2019-03-18 15:34:04 GMT 48.995670 6.813547 18,050 213 195 -64
2019-03-18 15:34:00 GMT 48.997833 6.815679 18,050 213 195 -64
2019-03-18 15:33:56 GMT 49.000511 6.818173 18,050 213 195 64
2019-03-18 15:33:53 GMT 49.002888 6.820486 18,025 213 195 0
2019-03-18 15:33:50 GMT 49.005432 6.823003 18,000 214 194 0
2019-03-18 15:33:47 GMT 49.007587 6.825184 18,025 244 182 0
2019-03-18 15:33:43 GMT 49.010284 6.828003 18,025 244 182 0
2019-03-18 15:33:40 GMT 49.016247 6.834436 18,050 245 182 -128
2019-03-18 15:33:36 GMT 49.016247 6.834436 18,000 217 195 64
2019-03-18 15:33:33 GMT 49.018108 6.836532 17,975 217 195 64
2019-03-18 15:33:29 GMT 49.020996 6.839929 18,000 219 195 0
2019-03-18 15:33:25 GMT 49.023602 6.843109 17,975 221 195 0
2019-03-18 15:33:22 GMT 49.025757 6.846032 18,000 225 193 -192
2019-03-18 15:33:18 GMT 49.030701 6.853426 18,000 226 193 -192
2019-03-18 15:33:15 GMT 49.030701 6.853426 18,000 228 192 -128
2019-03-18 15:33:12 GMT 49.031982 6.855541 18,025 233 189 -192
2019-03-18 15:33:07 GMT 49.035053 6.861396 18,025 235 187 -64
2019-03-18 15:33:02 GMT 49.037476 6.866807 18,050 241 184 64
2019-03-18 15:32:59 GMT 49.038666 6.870047 18,025 245 176 -64
2019-03-18 15:32:56 GMT 49.039757 6.873394 18,050 245 181 -128
2019-03-18 15:32:51 GMT 49.041458 6.878779 18,050 245 180 0
2019-03-18 15:32:47 GMT 49.044552 6.888355 18,025 245 176 64
2019-03-18 15:32:43 GMT 49.044552 6.888355 18,025 245 176 64
2019-03-18 15:32:38 GMT 49.046459 6.894427 18,025 245 177 64
2019-03-18 15:32:29 GMT 49.049347 6.903534 18,025 244 177 0
2019-03-18 15:32:26 GMT 49.050613 6.907443 18,050 244 176 0
2019-03-18 15:32:19 GMT 49.053024 6.914809 18,050 244 177 0
2019-03-18 15:32:16 GMT 49.055351 6.922037 18,025 247 173 -64
2019-03-18 15:32:06 GMT 49.059170 6.933819 18,025 244 176 0
2019-03-18 15:32:02 GMT 49.059170 6.933819 18,025 244 174 -64
2019-03-18 15:31:58 GMT 49.060455 6.937866 18,025 244 175 0
2019-03-18 15:31:54 GMT 49.062195 6.943219 18,025 245 175 192
2019-03-18 15:31:49 GMT 49.064026 6.948853 18,025 244 177 64
2019-03-18 15:31:45 GMT 49.065170 6.952374 18,025 244 177 64
2019-03-18 15:31:42 GMT 49.066223 6.955684 18,025 244 177 64
2019-03-18 15:31:38 GMT 49.068008 6.961036 18,025 244 179 0
2019-03-18 15:31:35 GMT 49.069016 6.964135 18,000 244 179 -64
2019-03-18 15:31:32 GMT 49.069885 6.966881 18,000 244 179 -128
2019-03-18 15:31:28 GMT 49.071739 6.972632 18,000 244 180 -64
2019-03-18 15:31:25 GMT 49.072540 6.974980 18,000 244 179 -64
2019-03-18 15:31:21 GMT 49.073868 6.978924 18,000 244 180 64
2019-03-18 15:31:16 GMT 49.076580 6.987232 18,025 244 179 -64
2019-03-18 15:31:13 GMT 49.076981 6.988572 18,025 244 179 -64
2019-03-18 15:31:10 GMT 49.077976 6.991569 18,050 244 179 -64
2019-03-18 15:31:03 GMT 49.081146 7.001038 18,025 243 179 0
2019-03-18 15:31:00 GMT 49.081650 7.002587 18,025 251 176 0
2019-03-18 15:30:55 GMT 49.083527 7.008221 18,000 244 178 0
2019-03-18 15:30:52 GMT 49.084820 7.012168 18,025 244 179 0
2019-03-18 15:30:49 GMT 49.085724 7.014982 18,025 244 179 0
2019-03-18 15:30:43 GMT 49.089661 7.026743 18,050 251 175 64
2019-03-18 15:30:40 GMT 49.089661 7.026743 18,025 244 179 -64
2019-03-18 15:30:33 GMT 49.092079 7.033997 18,050 251 176 0
2019-03-18 15:30:30 GMT 49.093060 7.037249 18,050 251 175 64
2019-03-18 15:30:27 GMT 49.093662 7.039634 18,050 251 176 64
2019-03-18 15:30:21 GMT 49.095428 7.047448 18,000 251 176 0
2019-03-18 15:30:17 GMT 49.096504 7.052066 18,025 251 176 0
2019-03-18 15:30:12 GMT 49.097946 7.058138 18,025 251 176 64
2019-03-18 15:30:09 GMT 49.099457 7.064561 18,000 251 177 64
2019-03-18 15:30:06 GMT 49.099457 7.064561 18,000 251 177 0
2019-03-18 15:30:01 GMT 49.101208 7.072160 18,000 251 175 0
2019-03-18 15:29:58 GMT 49.102974 7.079821 18,025 254 174 64
2019-03-18 15:29:55 GMT 49.102974 7.079821 18,025 254 174 64
2019-03-18 15:29:52 GMT 49.103394 7.081628 18,050 252 176 64
2019-03-18 15:29:49 GMT 49.104126 7.084773 18,050 252 176 64
2019-03-18 15:29:46 GMT 49.105133 7.089351 18,050 252 176 0
2019-03-18 15:29:42 GMT 49.106327 7.094494 18,025 251 176 64
2019-03-18 15:29:39 GMT 49.107880 7.101182 18,025 251 176 64
2019-03-18 15:29:35 GMT 49.107880 7.101182 18,025 251 176 0
2019-03-18 15:29:32 GMT 49.109070 7.106253 18,025 251 175 0
2019-03-18 15:29:29 GMT 49.109585 7.108443 18,025 250 175 0
2019-03-18 15:29:26 GMT 49.110489 7.112239 18,050 250 175 0
2019-03-18 15:29:23 GMT 49.111305 7.115599 18,050 250 175 0
2019-03-18 15:29:20 GMT 49.112137 7.118929 18,050 251 175 0
2019-03-18 15:29:17 GMT 49.114006 7.126874 18,000 251 175 -64
2019-03-18 15:29:13 GMT 49.114006 7.126874 18,025 251 175 -64
2019-03-18 15:29:10 GMT 49.114891 7.130561 18,025 251 174 64
2019-03-18 15:29:07 GMT 49.115570 7.133507 18,025 251 174 64
2019-03-18 15:29:03 GMT 49.116852 7.139141 18,025 251 174 -64
2019-03-18 15:28:59 GMT 49.117733 7.143137 18,025 251 173 64
2019-03-18 15:28:56 GMT 49.118591 7.146888 18,025 251 173 64
2019-03-18 15:28:52 GMT 49.119549 7.151088 18,025 251 173 64
2019-03-18 15:28:49 GMT 49.120338 7.154485 18,050 251 173 0
2019-03-18 15:28:46 GMT 49.121410 7.159038 18,050 251 173 0
2019-03-18 15:28:42 GMT 49.122295 7.162580 18,050 250 174 0
2019-03-18 15:28:37 GMT 49.124954 7.173509 18,000 250 174 64
2019-03-18 15:28:33 GMT 49.126110 7.178120 18,000 250 174 128
2019-03-18 15:28:29 GMT 49.126110 7.178120 18,000 250 174 128
2019-03-18 15:28:25 GMT 49.127197 7.182523 18,000 250 174 64
2019-03-18 15:28:22 GMT 49.127884 7.185481 18,000 250 175 0
2019-03-18 15:28:19 GMT 49.128754 7.188932 18,000 250 176 -64
2019-03-18 15:28:16 GMT 49.129601 7.192576 18,050 250 175 -128
2019-03-18 15:28:13 GMT 49.130627 7.196695 18,050 250 176 -64
2019-03-18 15:28:10 GMT 49.131371 7.199803 18,025 250 176 -64
2019-03-18 15:28:07 GMT 49.132347 7.203779 18,050 250 176 -64
2019-03-18 15:28:04 GMT 49.133045 7.206742 18,025 251 176 64
2019-03-18 15:28:01 GMT 49.135254 7.216116 18,025 251 176 0
2019-03-18 15:27:57 GMT 49.135254 7.216116 18,025 251 176 0
2019-03-18 15:27:54 GMT 49.135746 7.218162 18,000 250 176 0
2019-03-18 15:27:51 GMT 49.136631 7.221776 18,000 250 176 -64
2019-03-18 15:27:48 GMT 49.137749 7.226546 18,000 250 176 -64
2019-03-18 15:27:44 GMT 49.138733 7.230694 18,025 251 176 -64
2019-03-18 15:27:41 GMT 49.139603 7.234356 18,025 251 176 0
2019-03-18 15:27:38 GMT 49.140198 7.236821 18,025 251 176 0
2019-03-18 15:27:33 GMT 49.141891 7.244075 18,000 250 175 64
2019-03-18 15:27:28 GMT 49.144180 7.253441 18,025 251 174 64
2019-03-18 15:27:24 GMT 49.144180 7.253441 18,050 251 175 -64
2019-03-18 15:27:21 GMT 49.144825 7.256253 18,050 251 174 -64
2019-03-18 15:27:18 GMT 49.145828 7.260484 18,050 251 174 0
2019-03-18 15:27:15 GMT 49.146606 7.263935 18,025 251 174 0
2019-03-18 15:27:11 GMT 49.147991 7.269986 18,025 251 174 64
2019-03-18 15:27:07 GMT 49.148689 7.272949 18,000 251 175 64
2019-03-18 15:27:02 GMT 49.150085 7.278804 18,000 251 174 128
2019-03-18 15:26:59 GMT 49.150909 7.282386 18,000 251 174 64
2019-03-18 15:26:56 GMT 49.151760 7.286104 18,025 251 174 0
2019-03-18 15:26:52 GMT 49.152786 7.290441 18,050 250 173 128
2019-03-18 15:26:48 GMT 49.153885 7.295204 18,050 251 174 -64
2019-03-18 15:26:44 GMT 49.155022 7.300054 18,050 250 174 -128
2019-03-18 15:26:40 GMT 49.156128 7.304641 18,025 250 173 0
2019-03-18 15:26:37 GMT 49.156788 7.307354 18,025 250 174 64
2019-03-18 15:26:34 GMT 49.158932 7.316027 18,025 251 175 0
2019-03-18 15:26:31 GMT 49.158932 7.316027 18,000 250 173 192
2019-03-18 15:26:25 GMT 49.160202 7.321331 18,000 250 173 128
2019-03-18 15:26:22 GMT 49.161163 7.325346 18,000 250 174 128
2019-03-18 15:26:19 GMT 49.161987 7.328796 18,000 250 174 0
2019-03-18 15:26:16 GMT 49.163452 7.334994 18,000 251 175 0
2019-03-18 15:26:10 GMT 49.164471 7.339156 18,025 250 175 -64
2019-03-18 15:26:07 GMT 49.165493 7.343348 18,050 253 173 -64
2019-03-18 15:26:04 GMT 49.166054 7.345661 18,050 250 176 -64
2019-03-18 15:26:01 GMT 49.167160 7.350276 18,050 250 175 -64
2019-03-18 15:25:58 GMT 49.167774 7.352745 18,025 250 174 64
2019-03-18 15:25:54 GMT 49.169033 7.357949 18,025 251 175 -64
2019-03-18 15:25:51 GMT 49.169769 7.361051 18,025 250 175 -64
2019-03-18 15:25:48 GMT 49.170731 7.364995 18,025 250 175 0
2019-03-18 15:25:42 GMT 49.172424 7.371897 18,025 250 175 0
2019-03-18 15:25:39 GMT 49.173267 7.375368 18,050 250 175 0
2019-03-18 15:25:36 GMT 49.175037 7.382596 18,000 250 175 0
2019-03-18 15:25:33 GMT 49.175037 7.382596 18,050 250 175 0
2019-03-18 15:25:29 GMT 49.175858 7.386122 18,000 250 175 0
2019-03-18 15:25:25 GMT 49.176956 7.390489 18,000 251 175 64
2019-03-18 15:25:22 GMT 49.178101 7.395348 18,000 251 175 -64
2019-03-18 15:25:19 GMT 49.179062 7.399433 18,000 251 175 0
2019-03-18 15:25:15 GMT 49.179794 7.402672 18,000 250 175 -64
2019-03-18 15:25:10 GMT 49.181229 7.408616 18,025 250 175 -64
2019-03-18 15:25:07 GMT 49.181946 7.411476 18,025 250 175 -64
2019-03-18 15:25:04 GMT 49.182770 7.414926 18,025 250 175 -64
2019-03-18 15:25:00 GMT 49.183975 7.419819 18,025 250 174 0
2019-03-18 15:24:57 GMT 49.185013 7.424011 18,050 250 174 64
2019-03-18 15:24:54 GMT 49.186020 7.428166 18,025 250 174 64
2019-03-18 15:24:50 GMT 49.186863 7.431745 18,025 251 175 0
2019-03-18 15:24:46 GMT 49.188072 7.436805 18,025 250 174 -64
2019-03-18 15:24:43 GMT 49.188816 7.439696 18,025 250 175 0
2019-03-18 15:24:40 GMT 49.190495 7.446418 18,050 250 175 64
2019-03-18 15:24:34 GMT 49.192474 7.454505 18,050 250 175 64
2019-03-18 15:24:31 GMT 49.192474 7.454505 18,050 250 175 -64
2019-03-18 15:24:27 GMT 49.193474 7.458633 18,000 250 175 64
2019-03-18 15:24:24 GMT 49.194305 7.462182 18,000 250 177 -64
2019-03-18 15:24:20 GMT 49.195404 7.466689 18,000 251 176 64
2019-03-18 15:24:16 GMT 49.197647 7.476196 18,000 251 177 -64
2019-03-18 15:24:08 GMT 49.198872 7.481400 18,000 250 177 -64
2019-03-18 15:24:05 GMT 49.199665 7.484797 18,000 250 177 -64
2019-03-18 15:24:02 GMT 49.200268 7.487183 18,000 250 177 -64
2019-03-18 15:23:59 GMT 49.201172 7.490845 18,025 250 177 -64
2019-03-18 15:23:56 GMT 49.202957 7.498028 18,025 250 176 0
2019-03-18 15:23:49 GMT 49.204086 7.502578 18,025 250 175 0
2019-03-18 15:23:45 GMT 49.205391 7.507927 18,025 250 175 64
2019-03-18 15:23:42 GMT 49.206226 7.511468 18,025 251 175 64
2019-03-18 15:23:39 GMT 49.207020 7.514793 18,050 253 172 0
2019-03-18 15:23:36 GMT 49.207809 7.518240 18,050 251 176 0
2019-03-18 15:23:30 GMT 49.209347 7.524767 18,025 251 175 0
2019-03-18 15:23:27 GMT 49.210464 7.529610 18,025 253 173 0
2019-03-18 15:23:22 GMT 49.211628 7.534453 18,050 251 175 -64
2019-03-18 15:23:19 GMT 49.212559 7.538283 18,050 248 177 0
2019-03-18 15:23:16 GMT 49.213394 7.541692 18,050 250 174 -64
2019-03-18 15:23:13 GMT 49.214127 7.544790 18,000 250 174 64
2019-03-18 15:23:09 GMT 49.215408 7.549931 18,000 250 174 128
2019-03-18 15:23:06 GMT 49.216236 7.553317 18,000 250 174 64
2019-03-18 15:23:02 GMT 49.217400 7.557943 18,000 250 174 64
2019-03-18 15:22:59 GMT 49.218430 7.561974 18,000 249 174 64
2019-03-18 15:22:54 GMT 49.219940 7.567960 18,000 249 175 -64
2019-03-18 15:22:51 GMT 49.220673 7.570848 18,000 249 175 0
2019-03-18 15:22:48 GMT 49.221405 7.573665 18,000 249 175 -64
2019-03-18 15:22:40 GMT 49.223732 7.582807 18,000 249 175 -64
2019-03-18 15:22:37 GMT 49.224663 7.586493 18,000 249 175 0
2019-03-18 15:22:34 GMT 49.225571 7.589863 18,025 248 175 -64
2019-03-18 15:22:31 GMT 49.226524 7.593577 18,050 248 175 -64
2019-03-18 15:22:28 GMT 49.227676 7.597821 18,025 248 175 -64
2019-03-18 15:22:24 GMT 49.228592 7.601201 18,050 248 174 0
2019-03-18 15:22:21 GMT 49.230247 7.607526 18,025 248 174 -64
2019-03-18 15:22:15 GMT 49.231461 7.611935 18,050 248 177 0
2019-03-18 15:22:10 GMT 49.232670 7.616561 18,050 249 173 -64
2019-03-18 15:22:07 GMT 49.233555 7.620030 18,050 249 173 -64
2019-03-18 15:22:04 GMT 49.234589 7.623948 18,050 248 172 0
2019-03-18 15:22:01 GMT 49.235641 7.627892 18,025 248 172 0
2019-03-18 15:21:58 GMT 49.236511 7.631132 18,025 248 173 64
2019-03-18 15:21:55 GMT 49.237278 7.633980 18,000 249 173 128
2019-03-18 15:21:52 GMT 49.238525 7.638667 18,000 249 174 128
2019-03-18 15:21:49 GMT 49.239166 7.641062 18,000 249 174 64
2019-03-18 15:21:46 GMT 49.241051 7.648436 18,000 249 174 128
2019-03-18 15:21:39 GMT 49.243237 7.656603 18,000 248 176 64
2019-03-18 15:21:36 GMT 49.243237 7.656603 18,000 248 178 0
2019-03-18 15:21:32 GMT 49.244308 7.660579 17,975 249 177 -128
2019-03-18 15:21:27 GMT 49.245659 7.665710 18,050 248 177 0
2019-03-18 15:21:23 GMT 49.248405 7.676408 18,025 249 177 -64
2019-03-18 15:21:19 GMT 49.248405 7.676408 18,050 248 178 -64
2019-03-18 15:21:16 GMT 49.249104 7.678865 18,050 248 177 0
2019-03-18 15:21:13 GMT 49.250217 7.683057 18,050 248 177 0
2019-03-18 15:21:10 GMT 49.252174 7.690357 18,025 249 176 -64
2019-03-18 15:21:06 GMT 49.252174 7.690357 18,025 249 176 0
2019-03-18 15:21:02 GMT 49.253429 7.695128 18,025 248 174 0
2019-03-18 15:20:59 GMT 49.254269 7.698380 18,025 248 174 0
2019-03-18 15:20:56 GMT 49.255341 7.702356 18,050 249 175 0
2019-03-18 15:20:53 GMT 49.256424 7.706627 18,050 248 174 -64
2019-03-18 15:20:50 GMT 49.257202 7.709367 18,025 248 174 0
2019-03-18 15:20:47 GMT 49.258484 7.714163 18,025 248 174 -64
2019-03-18 15:20:44 GMT 49.259079 7.716346 18,000 248 174 0
2019-03-18 15:20:41 GMT 49.259903 7.719374 18,000 248 174 0
2019-03-18 15:20:38 GMT 49.260788 7.722738 18,025 249 173 0
2019-03-18 15:20:35 GMT 49.261765 7.726280 18,025 248 172 0
2019-03-18 15:20:32 GMT 49.262695 7.729868 18,025 248 172 64
2019-03-18 15:20:29 GMT 49.263565 7.732896 18,000 248 172 0
2019-03-18 15:20:26 GMT 49.264481 7.736347 18,025 248 172 -64
2019-03-18 15:20:23 GMT 49.265442 7.739798 18,025 248 169 0
2019-03-18 15:20:19 GMT 49.266907 7.745150 18,025 248 171 0
2019-03-18 15:20:16 GMT 49.268513 7.751071 18,050 248 170 0
2019-03-18 15:20:13 GMT 49.268513 7.751071 18,050 248 170 0
2019-03-18 15:20:09 GMT 49.270050 7.756709 18,050 248 169 -64
2019-03-18 15:20:06 GMT 49.270611 7.758877 18,025 248 170 128
2019-03-18 15:20:03 GMT 49.271530 7.762263 18,025 248 170 128
2019-03-18 15:19:58 GMT 49.273216 7.768346 18,025 248 171 128
2019-03-18 15:19:55 GMT 49.273869 7.770659 18,000 248 171 128
2019-03-18 15:19:52 GMT 49.274754 7.773911 18,000 248 171 128
2019-03-18 15:19:49 GMT 49.275787 7.777827 18,000 248 172 0
2019-03-18 15:19:46 GMT 49.276794 7.781701 17,975 248 172 0
2019-03-18 15:19:43 GMT 49.277756 7.785292 18,000 248 173 128
2019-03-18 15:19:39 GMT 49.278946 7.789659 18,000 248 173 -128
2019-03-18 15:19:36 GMT 49.279770 7.792546 18,000 248 173 -64
2019-03-18 15:19:32 GMT 49.280849 7.796607 18,000 248 173 0
2019-03-18 15:19:29 GMT 49.281921 7.800582 18,000 248 173 64
2019-03-18 15:19:25 GMT 49.284344 7.809472 18,025 248 174 0
2019-03-18 15:19:21 GMT 49.284344 7.809472 18,025 248 174 0
2019-03-18 15:19:18 GMT 49.285320 7.812942 18,025 248 174 -64
2019-03-18 15:19:15 GMT 49.286251 7.816483 18,025 249 174 -128
2019-03-18 15:19:12 GMT 49.287182 7.820025 18,000 249 174 -64
2019-03-18 15:19:07 GMT 49.288441 7.824795 18,000 248 174 -128
2019-03-18 15:19:04 GMT 49.289509 7.828698 18,025 248 174 -64
2019-03-18 15:19:00 GMT 49.290672 7.833035 18,025 248 173 0
2019-03-18 15:18:57 GMT 49.291809 7.837266 18,025 248 173 128
2019-03-18 15:18:54 GMT 49.292721 7.840697 18,000 248 173 64
2019-03-18 15:18:51 GMT 49.293411 7.843252 18,000 249 173 64
2019-03-18 15:18:45 GMT 49.295235 7.850165 18,000 249 173 0
2019-03-18 15:18:42 GMT 49.298077 7.860573 18,000 248 173 0
2019-03-18 15:18:39 GMT 49.298077 7.860573 18,000 248 173 0
2019-03-18 15:18:35 GMT 49.298218 7.861140 18,025 248 173 0
2019-03-18 15:18:32 GMT 49.299637 7.866211 18,050 248 173 64
2019-03-18 15:18:29 GMT 49.300308 7.868668 18,050 248 174 64
2019-03-18 15:18:25 GMT 49.302544 7.877125 18,000 248 174 0
2019-03-18 15:18:22 GMT 49.302544 7.877125 18,000 248 174 -64
2019-03-18 15:18:19 GMT 49.303333 7.880088 18,000 248 175 -64
2019-03-18 15:18:16 GMT 49.304455 7.884136 18,000 248 174 0
2019-03-18 15:18:13 GMT 49.305103 7.886593 18,000 248 174 0
2019-03-18 15:18:10 GMT 49.306828 7.892954 18,025 248 174 -64
2019-03-18 15:18:04 GMT 49.308060 7.897409 18,050 248 174 0
2019-03-18 15:18:00 GMT 49.309479 7.902712 18,025 248 174 0
2019-03-18 15:17:53 GMT 49.311584 7.910649 18,025 248 174 0
2019-03-18 15:17:50 GMT 49.311993 7.912325 18,000 248 174 64
2019-03-18 15:17:47 GMT 49.312923 7.915722 18,000 248 174 64
2019-03-18 15:17:44 GMT 49.314285 7.920720 18,025 248 173 -64
2019-03-18 15:17:41 GMT 49.315063 7.923607 18,000 248 173 -64
2019-03-18 15:17:34 GMT 49.317123 7.931073 18,025 248 173 0
2019-03-18 15:17:31 GMT 49.318047 7.934514 18,025 249 173 64
2019-03-18 15:17:27 GMT 49.319366 7.939524 18,050 249 173 0
2019-03-18 15:17:24 GMT 49.320141 7.942465 18,050 249 173 0
2019-03-18 15:17:20 GMT 49.321655 7.948327 18,050 249 173 -64
2019-03-18 15:17:17 GMT 49.322422 7.951138 18,000 248 174 -64
2019-03-18 15:17:14 GMT 49.323307 7.954391 18,000 248 174 64
2019-03-18 15:17:11 GMT 49.324356 7.958468 18,000 249 173 -64
2019-03-18 15:17:08 GMT 49.324951 7.960792 18,000 249 173 -64
2019-03-18 15:17:05 GMT 49.325680 7.963570 18,050 249 173 -64
2019-03-18 15:17:01 GMT 49.327698 7.971215 18,050 249 173 0
2019-03-18 15:16:58 GMT 49.328842 7.975581 18,050 249 172 0
2019-03-18 15:16:55 GMT 49.328842 7.975581 18,025 249 175 320
2019-03-18 15:16:51 GMT 49.330032 7.980159 18,025 249 175 320
2019-03-18 15:16:48 GMT 49.330811 7.983187 18,000 249 175 192
2019-03-18 15:16:45 GMT 49.332012 7.987783 17,975 250 176 64
2019-03-18 15:16:42 GMT 49.332550 7.989948 17,975 250 176 192
2019-03-18 15:16:39 GMT 49.333828 7.995156 17,975 250 176 64
2019-03-18 15:16:36 GMT 49.334759 7.998842 18,000 249 177 -128
2019-03-18 15:16:33 GMT 49.335342 8.001146 17,975 249 177 -64
2019-03-18 15:16:30 GMT 49.336201 8.004480 17,975 249 177 -64
2019-03-18 15:16:27 GMT 49.336899 8.007226 17,975 250 178 0
2019-03-18 15:16:24 GMT 49.338112 8.012069 18,000 250 178 -64
2019-03-18 15:16:21 GMT 49.340012 8.019949 18,000 250 179 0
2019-03-18 15:16:17 GMT 49.340012 8.019949 18,000 250 179 0
2019-03-18 15:16:14 GMT 49.340672 8.022622 18,000 250 178 -64
2019-03-18 15:16:11 GMT 49.341694 8.026814 18,000 250 178 0
2019-03-18 15:16:08 GMT 49.342575 8.030442 18,000 250 178 -64
2019-03-18 15:16:04 GMT 49.343510 8.034258 18,000 250 179 0
2019-03-18 15:16:01 GMT 49.344681 8.039034 17,975 250 179 64
2019-03-18 15:15:57 GMT 49.345791 8.043727 17,975 250 178 64
2019-03-18 15:15:54 GMT 49.346558 8.046781 17,975 250 178 -64
2019-03-18 15:15:51 GMT 49.347607 8.051027 17,975 250 178 -64
2019-03-18 15:15:48 GMT 49.348633 8.055002 18,000 250 178 -64
2019-03-18 15:15:45 GMT 49.349213 8.057486 18,000 250 178 -64
2019-03-18 15:15:42 GMT 49.350262 8.061580 18,000 249 177 128
2019-03-18 15:15:39 GMT 49.350819 8.063893 18,025 250 178 0
2019-03-18 15:15:36 GMT 49.352169 8.069169 18,000 249 177 128
2019-03-18 15:15:30 GMT 49.353973 8.076078 17,975 249 177 64
2019-03-18 15:15:27 GMT 49.354916 8.079722 17,975 249 176 64
2019-03-18 15:15:24 GMT 49.355381 8.081529 17,975 249 176 0
2019-03-18 15:15:19 GMT 49.357040 8.087839 17,975 248 174 0
2019-03-18 15:15:14 GMT 49.358639 8.093671 17,975 248 173 0
2019-03-18 15:15:11 GMT 49.359524 8.097141 17,975 248 171 0
2019-03-18 15:15:08 GMT 49.360565 8.101008 17,975 248 171 0
2019-03-18 15:15:05 GMT 49.361294 8.103718 17,975 248 169 -64
2019-03-18 15:15:02 GMT 49.362179 8.107115 18,000 248 166 -128
2019-03-18 15:14:57 GMT 49.364548 8.115798 18,000 247 165 -128
2019-03-18 15:14:54 GMT 49.364548 8.115798 18,025 248 164 0
2019-03-18 15:14:51 GMT 49.365528 8.119258 18,025 248 160 64
2019-03-18 15:14:48 GMT 49.366379 8.122418 18,000 251 156 64
2019-03-18 15:14:43 GMT 49.367752 8.127418 18,000 248 159 64
2019-03-18 15:14:36 GMT 49.369812 8.134870 18,000 247 158 64
2019-03-18 15:14:33 GMT 49.370789 8.138339 18,000 247 159 0
2019-03-18 15:14:30 GMT 49.372513 8.144555 17,975 247 159 64
2019-03-18 15:14:26 GMT 49.372513 8.144555 17,975 247 159 64
2019-03-18 15:14:23 GMT 49.373383 8.147560 17,975 248 159 64
2019-03-18 15:14:20 GMT 49.374699 8.152506 17,975 248 159 64
2019-03-18 15:14:16 GMT 49.375763 8.156292 17,950 248 160 0
2019-03-18 15:14:12 GMT 49.376888 8.160529 17,950 248 160 0
2019-03-18 15:14:09 GMT 49.377495 8.162697 17,950 247 160 -64
2019-03-18 15:14:06 GMT 49.378563 8.166673 17,975 247 160 -64
2019-03-18 15:14:03 GMT 49.379169 8.168841 17,975 247 160 -64
2019-03-18 15:14:00 GMT 49.381638 8.177659 17,975 247 160 -64
2019-03-18 15:13:55 GMT 49.382767 8.181716 17,975 247 160 -64
2019-03-18 15:13:51 GMT 49.382767 8.181716 17,975 248 160 64
2019-03-18 15:13:48 GMT 49.383919 8.185899 18,000 248 161 64
2019-03-18 15:13:45 GMT 49.384781 8.189181 17,975 248 161 0
2019-03-18 15:13:42 GMT 49.385452 8.191681 18,000 248 161 0
2019-03-18 15:13:39 GMT 49.386017 8.193829 18,000 249 161 0
2019-03-18 15:13:36 GMT 49.386990 8.197608 18,000 248 161 0
2019-03-18 15:13:33 GMT 49.387711 8.200308 17,975 248 161 0
2019-03-18 15:13:30 GMT 49.389679 8.207562 17,975 248 162 -64
2019-03-18 15:13:27 GMT 49.389679 8.207562 18,000 248 161 64
2019-03-18 15:13:22 GMT 49.391098 8.212773 18,000 248 161 64
2019-03-18 15:13:19 GMT 49.391830 8.215677 18,000 249 162 64
2019-03-18 15:13:14 GMT 49.393387 8.221436 18,000 248 162 0
2019-03-18 15:13:11 GMT 49.394119 8.224182 17,975 248 163 64
2019-03-18 15:13:08 GMT 49.394718 8.226519 17,975 249 162 0
2019-03-18 15:13:04 GMT 49.395996 8.231295 17,975 249 162 -64
2019-03-18 15:13:01 GMT 49.396999 8.235193 17,975 248 163 -128
2019-03-18 15:12:57 GMT 49.397827 8.238267 17,975 248 162 -64
2019-03-18 15:12:53 GMT 49.399109 8.242986 17,975 248 161 0
2019-03-18 15:12:50 GMT 49.399979 8.246296 18,000 248 161 -64
2019-03-18 15:12:47 GMT 49.400711 8.249042 17,975 248 162 0
2019-03-18 15:12:43 GMT 49.402164 8.254419 17,975 248 162 64
2019-03-18 15:12:39 GMT 49.403412 8.258972 17,975 248 162 64
2019-03-18 15:12:36 GMT 49.403843 8.260707 17,975 248 161 128
2019-03-18 15:12:32 GMT 49.405289 8.266085 17,975 249 163 0
2019-03-18 15:12:29 GMT 49.405842 8.268368 17,975 249 162 128
2019-03-18 15:12:26 GMT 49.407055 8.272850 18,000 248 164 -64
2019-03-18 15:12:23 GMT 49.407799 8.275596 18,000 248 164 0
2019-03-18 15:12:20 GMT 49.408730 8.278993 18,000 248 164 -64
2019-03-18 15:12:14 GMT 49.410126 8.284197 18,000 248 164 0
2019-03-18 15:12:11 GMT 49.411102 8.287739 17,975 248 164 0
2019-03-18 15:12:07 GMT 49.412407 8.292726 18,000 248 165 0
2019-03-18 15:12:04 GMT 49.413849 8.298292 18,000 248 165 -64
2019-03-18 15:11:58 GMT 49.415249 8.303423 18,000 248 164 0
2019-03-18 15:11:55 GMT 49.416733 8.308904 18,000 248 164 0
2019-03-18 15:11:52 GMT 49.416733 8.308904 17,975 248 164 64
2019-03-18 15:11:49 GMT 49.417648 8.312425 17,975 248 165 64
2019-03-18 15:11:46 GMT 49.418411 8.315205 17,975 248 165 0
2019-03-18 15:11:42 GMT 49.420212 8.322144 17,975 249 164 -64
2019-03-18 15:11:39 GMT 49.420212 8.322144 17,975 249 164 -64
2019-03-18 15:11:35 GMT 49.421356 8.326651 17,975 249 163 0
2019-03-18 15:11:32 GMT 49.422180 8.329820 17,975 249 164 0
2019-03-18 15:11:28 GMT 49.423302 8.334214 17,975 249 164 0
2019-03-18 15:11:25 GMT 49.424515 8.339116 17,975 249 164 64
2019-03-18 15:11:22 GMT 49.425255 8.341948 17,975 249 164 -64
2019-03-18 15:11:19 GMT 49.426186 8.345490 17,975 248 165 0
2019-03-18 15:11:15 GMT 49.427025 8.348742 17,975 248 165 0
2019-03-18 15:11:12 GMT 49.427910 8.352059 17,975 249 166 0
2019-03-18 15:11:06 GMT 49.429779 8.359222 17,975 249 165 0
2019-03-18 15:11:03 GMT 49.430748 8.363045 18,000 249 166 0
2019-03-18 15:10:59 GMT 49.431446 8.365866 18,000 249 166 0
2019-03-18 15:10:56 GMT 49.432472 8.369800 18,025 249 166 0
2019-03-18 15:10:53 GMT 49.433357 8.373215 18,025 249 166 0
2019-03-18 15:10:47 GMT 49.435265 8.380638 18,000 249 167 64
2019-03-18 15:10:44 GMT 49.435822 8.382930 17,975 249 167 0
2019-03-18 15:10:41 GMT 49.436554 8.385749 17,975 250 168 0
2019-03-18 15:10:38 GMT 49.438709 8.394371 18,000 249 171 0
2019-03-18 15:10:34 GMT 49.438709 8.394371 18,000 249 169 0
2019-03-18 15:10:31 GMT 49.439453 8.397192 18,000 249 169 0
2019-03-18 15:10:28 GMT 49.440262 8.400421 18,000 249 171 0
2019-03-18 15:10:22 GMT 49.441921 8.406768 17,975 249 171 64
2019-03-18 15:10:19 GMT 49.442963 8.410685 17,975 249 172 64
2019-03-18 15:10:16 GMT 49.443924 8.414515 17,975 249 173 0
2019-03-18 15:10:13 GMT 49.444794 8.417913 17,975 248 176 -64
2019-03-18 15:10:10 GMT 49.446159 8.423173 17,975 249 174 0
2019-03-18 15:10:06 GMT 49.447041 8.426365 17,975 248 176 -64
2019-03-18 15:10:01 GMT 49.448391 8.431413 17,975 248 175 -64
2019-03-18 15:09:58 GMT 49.449322 8.434902 18,000 249 172 -64
2019-03-18 15:09:55 GMT 49.450115 8.437945 17,975 248 175 0
2019-03-18 15:09:52 GMT 49.451385 8.442704 17,975 248 175 0
2019-03-18 15:09:49 GMT 49.452023 8.445220 18,000 249 176 0
2019-03-18 15:09:46 GMT 49.452999 8.448857 17,975 249 176 0
2019-03-18 15:09:42 GMT 49.454086 8.453040 18,000 249 176 0
2019-03-18 15:09:39 GMT 49.455048 8.456798 18,025 248 174 0
2019-03-18 15:09:36 GMT 49.456055 8.460774 18,025 249 175 0
2019-03-18 15:09:33 GMT 49.456833 8.463665 18,000 248 174 0
2019-03-18 15:09:30 GMT 49.457748 8.467062 18,000 248 174 0
2019-03-18 15:09:27 GMT 49.458492 8.470014 18,000 249 173 64
2019-03-18 15:09:24 GMT 49.459396 8.473350 18,000 249 173 0
2019-03-18 15:09:21 GMT 49.460724 8.478626 18,000 249 172 -64
2019-03-18 15:09:18 GMT 49.462189 8.484264 18,025 249 171 -64
2019-03-18 15:09:15 GMT 49.462189 8.484264 18,025 249 172 0
2019-03-18 15:09:12 GMT 49.463196 8.488126 18,025 249 171 64
2019-03-18 15:09:08 GMT 49.465153 8.495921 17,950 249 169 128
2019-03-18 15:09:05 GMT 49.465153 8.495921 17,950 249 169 128
2019-03-18 15:09:00 GMT 49.467178 8.504068 17,975 249 169 128
2019-03-18 15:08:54 GMT 49.468048 8.507466 17,950 250 168 128
2019-03-18 15:08:50 GMT 49.470062 8.515778 17,950 250 164 0
2019-03-18 15:08:42 GMT 49.471249 8.520714 17,950 251 160 -128
2019-03-18 15:08:39 GMT 49.472168 8.524740 17,975 250 156 128
2019-03-18 15:08:34 GMT 49.473392 8.529696 17,950 250 156 128
2019-03-18 15:08:31 GMT 49.473999 8.532329 17,950 250 153 448
2019-03-18 15:08:28 GMT 49.474880 8.535932 17,925 250 153 640
2019-03-18 15:08:25 GMT 49.475533 8.538530 17,750 250 152 704
2019-03-18 15:08:21 GMT 49.476883 8.544038 17,850 249 151 640
2019-03-18 15:08:18 GMT 49.477348 8.545953 17,825 250 152 704
2019-03-18 15:08:15 GMT 49.478001 8.548625 17,800 250 152 704
2019-03-18 15:08:12 GMT 49.479996 8.556615 17,675 249 152 704
2019-03-18 15:08:08 GMT 49.479996 8.556615 17,650 249 152 704
2019-03-18 15:08:05 GMT 49.480865 8.560084 17,625 249 152 704
2019-03-18 15:08:02 GMT 49.481400 8.562210 17,625 249 151 640
2019-03-18 15:07:59 GMT 49.482281 8.565624 17,600 249 149 704
2019-03-18 15:07:56 GMT 49.482880 8.568035 17,575 248 151 704
2019-03-18 15:07:53 GMT 49.483772 8.571340 17,525 248 150 704
2019-03-18 15:07:50 GMT 49.484299 8.573311 17,500 249 149 640
2019-03-18 15:07:47 GMT 49.485355 8.577427 17,450 248 147 768
2019-03-18 15:07:44 GMT 49.487000 8.583575 17,350 248 147 832
2019-03-18 15:07:41 GMT 49.487000 8.583575 17,350 248 147 832
2019-03-18 15:07:36 GMT 49.488098 8.587550 17,325 248 147 896
2019-03-18 15:07:33 GMT 49.488876 8.590514 17,250 248 146 832
2019-03-18 15:07:30 GMT 49.489590 8.593164 17,200 248 146 832
2019-03-18 15:07:24 GMT 49.491360 8.599623 17,100 248 146 768
2019-03-18 15:07:21 GMT 49.492172 8.602656 17,075 248 145 768
2019-03-18 15:07:18 GMT 49.492802 8.604967 16,975 247 145 832
2019-03-18 15:07:15 GMT 49.493595 8.607788 16,950 248 144 832
2019-03-18 15:07:11 GMT 49.494526 8.611129 16,950 248 144 832
2019-03-18 15:07:08 GMT 49.495548 8.614914 16,875 248 144 768
2019-03-18 15:07:04 GMT 49.496338 8.617835 16,850 247 143 832
2019-03-18 15:07:00 GMT 49.497505 8.621892 16,800 247 143 832
2019-03-18 15:06:55 GMT 49.499321 8.628573 16,550 247 143 768
2019-03-18 15:06:49 GMT 49.500343 8.632285 16,675 247 143 832
2019-03-18 15:06:44 GMT 49.502346 8.639337 16,525 248 143 832
2019-03-18 15:06:41 GMT 49.502998 8.641712 16,525 248 143 832
2019-03-18 15:06:35 GMT 49.504070 8.645572 16,450 247 142 896
2019-03-18 15:06:31 GMT 49.506226 8.653468 16,300 248 142 768
2019-03-18 15:06:23 GMT 49.507000 8.656262 16,250 248 142 768
2019-03-18 15:06:20 GMT 49.507736 8.659034 16,225 248 143 704
2019-03-18 15:06:17 GMT 49.509747 8.666580 16,100 249 142 768
2019-03-18 15:06:12 GMT 49.509747 8.666580 15,975 249 141 768
2019-03-18 15:06:09 GMT 49.510345 8.668863 16,050 249 140 640
2019-03-18 15:06:06 GMT 49.511261 8.672333 16,025 249 140 704
2019-03-18 15:06:02 GMT 49.512177 8.675947 15,950 249 141 832
2019-03-18 15:05:59 GMT 49.513100 8.679570 15,925 250 141 768
2019-03-18 15:05:55 GMT 49.513657 8.681946 15,900 250 140 768
2019-03-18 15:05:51 GMT 49.514694 8.686210 15,825 250 140 832
2019-03-18 15:05:48 GMT 49.515472 8.689295 15,800 251 140 768
2019-03-18 15:05:45 GMT 49.516113 8.691993 15,775 251 140 768
2019-03-18 15:05:41 GMT 49.517075 8.696257 15,650 254 139 832
2019-03-18 15:05:37 GMT 49.517761 8.699220 15,650 251 141 832
2019-03-18 15:05:34 GMT 49.518448 8.702184 15,475 251 140 832
2019-03-18 15:05:30 GMT 49.519245 8.705774 15,550 251 140 832
2019-03-18 15:05:27 GMT 49.520550 8.711639 15,475 252 141 768
2019-03-18 15:05:24 GMT 49.520550 8.711639 15,425 253 140 768
2019-03-18 15:05:20 GMT 49.522339 8.720181 15,325 253 140 768
2019-03-18 15:05:16 GMT 49.522736 8.722254 15,325 253 140 768
2019-03-18 15:05:13 GMT 49.523438 8.725530 15,275 254 139 768
2019-03-18 15:05:09 GMT 49.523438 8.725530 15,250 253 140 832
2019-03-18 15:05:05 GMT 49.524261 8.729722 15,075 254 139 832
2019-03-18 15:04:59 GMT 49.525295 8.735096 15,100 254 139 768
2019-03-18 15:04:56 GMT 49.525993 8.738807 15,050 254 139 896
2019-03-18 15:04:53 GMT 49.526413 8.741109 15,025 255 139 896
2019-03-18 15:04:50 GMT 49.526924 8.743929 15,000 255 139 832
2019-03-18 15:04:44 GMT 49.527996 8.749868 14,875 255 139 832
2019-03-18 15:04:41 GMT 49.528370 8.751947 14,850 255 139 896
2019-03-18 15:04:38 GMT 49.529205 8.756475 14,775 255 139 896
2019-03-18 15:04:34 GMT 49.529755 8.759428 14,725 255 139 832
2019-03-18 15:04:31 GMT 49.530231 8.761968 14,675 254 139 768
2019-03-18 15:04:28 GMT 49.530743 8.764789 14,650 254 139 832
2019-03-18 15:04:25 GMT 49.531357 8.767957 14,550 254 139 832
2019-03-18 15:04:22 GMT 49.531860 8.770631 14,425 254 138 768
2019-03-18 15:04:18 GMT 49.532558 8.774142 14,500 253 139 768
2019-03-18 15:04:14 GMT 49.533352 8.778076 14,425 253 139 832
2019-03-18 15:04:11 GMT 49.534653 8.784292 14,400 253 139 832
2019-03-18 15:04:08 GMT 49.534653 8.784292 14,375 253 139 768
2019-03-18 15:04:02 GMT 49.535629 8.788914 14,300 252 140 704
2019-03-18 15:03:59 GMT 49.536236 8.791661 14,050 249 139 768
2019-03-18 15:03:56 GMT 49.537033 8.795134 14,200 250 139 704
2019-03-18 15:03:53 GMT 49.537865 8.798713 14,150 250 139 832
2019-03-18 15:03:46 GMT 49.539310 8.804354 14,050 249 140 768
2019-03-18 15:03:41 GMT 49.540707 8.809625 14,000 248 140 768
2019-03-18 15:03:38 GMT 49.541309 8.811852 13,950 246 140 768
2019-03-18 15:03:33 GMT 49.543312 8.818755 13,875 246 140 832
2019-03-18 15:03:27 GMT 49.544941 8.824026 13,800 246 140 768
2019-03-18 15:03:21 GMT 49.545822 8.826864 13,675 246 140 832
2019-03-18 15:03:17 GMT 49.546921 8.830550 13,650 245 139 768
2019-03-18 15:03:14 GMT 49.547836 8.833441 13,625 244 139 768
2019-03-18 15:03:10 GMT 49.548981 8.837055 13,500 244 139 768
2019-03-18 15:03:07 GMT 49.549690 8.839169 13,500 244 139 832
2019-03-18 15:03:03 GMT 49.550812 8.842765 13,500 245 138 832
2019-03-18 15:03:00 GMT 49.551910 8.846235 13,425 245 138 832
2019-03-18 15:02:56 GMT 49.553055 8.849849 13,300 245 139 896
2019-03-18 15:02:53 GMT 49.554020 8.852976 13,300 245 139 896
2019-03-18 15:02:49 GMT 49.554810 8.855649 13,200 245 139 960
2019-03-18 15:02:43 GMT 49.556534 8.861290 13,175 245 139 1024
2019-03-18 15:02:38 GMT 49.557907 8.865895 13,050 247 139 960
2019-03-18 15:02:34 GMT 49.559464 8.871315 12,925 247 140 1024
2019-03-18 15:02:27 GMT 49.560516 8.875146 12,875 248 140 1024
2019-03-18 15:02:24 GMT 49.561569 8.878977 12,800 248 141 1088
2019-03-18 15:02:20 GMT 49.562531 8.882808 12,550 250 143 1088
2019-03-18 15:02:13 GMT 49.564587 8.891206 12,450 250 146 1088
2019-03-18 15:02:07 GMT 49.565563 8.895214 12,325 251 146 1088
2019-03-18 15:02:03 GMT 49.566376 8.898709 12,400 251 148 1152
2019-03-18 15:02:00 GMT 49.567017 8.901311 12,325 251 149 1152
2019-03-18 15:01:57 GMT 49.568588 8.908056 12,275 251 152 1216
2019-03-18 15:01:54 GMT 49.568588 8.908056 12,175 250 153 1280
2019-03-18 15:01:51 GMT 49.569260 8.910707 12,125 250 154 1088
2019-03-18 15:01:48 GMT 49.570732 8.916964 12,100 251 156 1024
2019-03-18 15:01:45 GMT 49.570732 8.916964 12,025 251 157 576
2019-03-18 15:01:42 GMT 49.571339 8.919636 12,050 251 157 640
2019-03-18 15:01:39 GMT 49.572315 8.923868 12,025 251 155 -64
2019-03-18 15:01:35 GMT 49.573059 8.926970 12,025 250 154 0
2019-03-18 15:01:32 GMT 49.573757 8.929806 12,050 251 142 64
2019-03-18 15:01:29 GMT 49.574524 8.933113 12,050 251 142 0
2019-03-18 15:01:26 GMT 49.575249 8.936190 12,050 251 144 -64
2019-03-18 15:01:22 GMT 49.576126 8.940125 12,050 251 142 64
2019-03-18 15:01:19 GMT 49.576923 8.943539 12,025 251 142 0
2019-03-18 15:01:16 GMT 49.577408 8.945690 12,025 252 138 0
2019-03-18 15:01:13 GMT 49.578186 8.949087 12,000 251 142 64
2019-03-18 15:01:09 GMT 49.578876 8.952002 12,000 251 142 64
2019-03-18 15:01:06 GMT 49.579716 8.955639 12,000 251 142 64
2019-03-18 15:00:59 GMT 49.581116 8.961808 12,025 251 142 0
2019-03-18 15:00:55 GMT 49.581997 8.965660 12,025 252 138 0
2019-03-18 15:00:49 GMT 49.583267 8.971277 12,000 252 141 -128
2019-03-18 15:00:45 GMT 49.584370 8.976053 12,050 251 140 64
2019-03-18 15:00:40 GMT 49.585098 8.979372 12,050 251 140 -64
2019-03-18 15:00:34 GMT 49.586605 8.985926 12,025 251 140 0
2019-03-18 15:00:30 GMT 49.587353 8.989192 12,025 252 140 64
2019-03-18 15:00:23 GMT 49.589958 9.001069 12,000 252 139 64
2019-03-18 15:00:18 GMT 49.589958 9.001069 12,025 252 138 0
2019-03-18 15:00:12 GMT 49.591167 9.006859 12,025 252 138 0
2019-03-18 15:00:07 GMT 49.591961 9.010571 12,025 252 138 0
2019-03-18 15:00:03 GMT 49.592842 9.014802 12,025 253 139 64
2019-03-18 14:59:59 GMT 49.593658 9.019053 12,025 254 139 0
2019-03-18 14:59:55 GMT 49.594334 9.022448 12,025 254 139 0
2019-03-18 14:59:52 GMT 49.594891 9.025491 12,025 254 139 0
2019-03-18 14:59:47 GMT 49.595764 9.030183 12,025 255 140 -64
2019-03-18 14:59:43 GMT 49.596909 9.036544 12,025 255 139 0
2019-03-18 14:59:37 GMT 49.597412 9.039435 12,025 256 139 64
2019-03-18 14:59:34 GMT 49.597961 9.042688 12,000 256 140 64
2019-03-18 14:59:30 GMT 49.598602 9.046591 12,000 257 141 64
2019-03-18 14:59:26 GMT 49.599220 9.050507 12,000 257 141 64
2019-03-18 14:59:23 GMT 49.599747 9.053746 12,000 257 142 128
2019-03-18 14:59:20 GMT 49.600201 9.056520 12,000 257 143 0
2019-03-18 14:59:14 GMT 49.601036 9.062088 12,000 257 143 0
2019-03-18 14:59:10 GMT 49.601669 9.066250 12,000 257 145 64
2019-03-18 14:59:05 GMT 49.602573 9.072109 12,000 258 147 -64
2019-03-18 14:59:02 GMT 49.602947 9.074707 12,000 257 147 0
2019-03-18 14:58:59 GMT 49.603458 9.078047 12,000 257 148 64
2019-03-18 14:58:56 GMT 49.603775 9.080272 12,000 257 149 -128
2019-03-18 14:58:52 GMT 49.604389 9.084357 12,000 257 150 0
2019-03-18 14:58:49 GMT 49.604996 9.087846 12,000 255 151 0
2019-03-18 14:58:46 GMT 49.605412 9.090667 12,025 256 150 -128
2019-03-18 14:58:41 GMT 49.606529 9.097274 12,000 256 151 -128
2019-03-18 14:58:36 GMT 49.607227 9.101059 12,050 254 151 0
2019-03-18 14:58:33 GMT 49.608021 9.105142 12,025 254 151 -64
2019-03-18 14:58:30 GMT 49.608578 9.108111 12,000 254 151 -64
2019-03-18 14:58:26 GMT 49.609276 9.111675 12,025 252 150 0
2019-03-18 14:58:22 GMT 49.610413 9.116845 12,025 252 151 64
2019-03-18 14:58:18 GMT 49.611137 9.119989 12,025 249 150 -64
2019-03-18 14:58:15 GMT 49.611698 9.122438 12,025 249 150 -64
2019-03-18 14:58:08 GMT 49.613651 9.130010 12,025 247 150 64
2019-03-18 14:58:05 GMT 49.614532 9.133036 12,025 247 150 64
2019-03-18 14:58:01 GMT 49.615517 9.136468 12,025 246 150 -128
2019-03-18 14:57:58 GMT 49.616631 9.140031 12,025 244 150 64
2019-03-18 14:57:54 GMT 49.617798 9.143520 12,025 242 150 64
2019-03-18 14:57:50 GMT 49.619431 9.147925 12,025 229 158 64
2019-03-18 14:57:47 GMT 49.620071 9.149660 12,000 239 152 64
2019-03-18 14:57:43 GMT 49.621658 9.153541 12,025 237 153 0
2019-03-18 14:57:39 GMT 49.623009 9.156511 12,050 235 154 64
2019-03-18 14:57:33 GMT 49.626175 9.162895 12,000 231 156 128
2019-03-18 14:57:28 GMT 49.628689 9.167423 12,000 228 159 64
2019-03-18 14:57:25 GMT 49.630409 9.170244 12,000 226 161 0
2019-03-18 14:57:20 GMT 49.632320 9.173213 12,000 225 162 0
2019-03-18 14:57:15 GMT 49.637814 9.180933 12,025 223 165 -128
2019-03-18 14:57:11 GMT 49.637814 9.180933 12,025 222 165 -192
2019-03-18 14:57:07 GMT 49.639767 9.183680 12,025 223 165 -192
2019-03-18 14:57:03 GMT 49.641865 9.186649 12,025 224 165 -128
2019-03-18 14:56:59 GMT 49.643818 9.189767 12,025 265 160 0
2019-03-18 14:56:55 GMT 49.646301 9.194472 12,025 232 163 64
2019-03-18 14:56:48 GMT 49.648239 9.200530 12,025 250 161 128
2019-03-18 14:56:45 GMT 49.648865 9.203652 12,025 259 161 192
2019-03-18 14:56:42 GMT 49.649174 9.207656 12,000 269 161 0
2019-03-18 14:56:37 GMT 49.649265 9.214486 12,025 269 161 -64
2019-03-18 14:56:33 GMT 49.649357 9.217900 12,025 269 161 64
2019-03-18 14:56:30 GMT 49.649414 9.220854 12,025 269 162 128
2019-03-18 14:56:27 GMT 49.649460 9.224323 12,025 269 163 64
2019-03-18 14:56:24 GMT 49.649498 9.229035 12,025 269 163 64
2019-03-18 14:56:21 GMT 49.649590 9.231708 12,025 269 163 64
2019-03-18 14:56:17 GMT 49.649689 9.237478 12,000 269 164 0
2019-03-18 14:56:14 GMT 49.649734 9.240514 12,000 269 164 0
2019-03-18 14:56:11 GMT 49.649822 9.243510 12,000 269 164 -64
2019-03-18 14:56:08 GMT 49.649918 9.247667 12,025 268 164 -64
2019-03-18 14:56:04 GMT 49.650055 9.252295 12,000 268 165 0
2019-03-18 14:56:01 GMT 49.650105 9.254794 12,000 268 165 0
2019-03-18 14:55:58 GMT 49.650238 9.259089 12,025 268 166 -64
2019-03-18 14:55:55 GMT 49.650330 9.261981 12,000 267 166 64
2019-03-18 14:55:52 GMT 49.650475 9.266597 12,025 267 167 0
2019-03-18 14:55:45 GMT 49.650757 9.273723 12,050 267 168 -64
2019-03-18 14:55:42 GMT 49.650940 9.277954 12,025 267 168 0
2019-03-18 14:55:39 GMT 49.651035 9.280923 12,025 267 168 0
2019-03-18 14:55:34 GMT 49.651360 9.287827 12,025 266 169 0
2019-03-18 14:55:30 GMT 49.651546 9.291835 11,975 257 117 896
2019-03-18 14:55:26 GMT 49.651794 9.297903 12,025 266 169 320
2019-03-18 14:55:22 GMT 49.651966 9.301114 12,025 266 170 0
2019-03-18 14:55:19 GMT 49.652161 9.305709 12,025 266 169 64
2019-03-18 14:55:14 GMT 49.652477 9.311655 11,975 266 170 256
2019-03-18 14:55:10 GMT 49.652847 9.319948 11,975 266 169 128
2019-03-18 14:55:04 GMT 49.652985 9.322839 11,975 267 169 64
2019-03-18 14:55:00 GMT 49.653168 9.328332 11,975 267 168 128
2019-03-18 14:54:57 GMT 49.653305 9.331946 11,975 268 166 -64
2019-03-18 14:54:54 GMT 49.653397 9.335054 11,975 268 164 -320
2019-03-18 14:54:51 GMT 49.653534 9.338813 11,975 268 164 -320
2019-03-18 14:54:48 GMT 49.653671 9.343655 12,000 269 154 -384
2019-03-18 14:54:44 GMT 49.653732 9.347064 12,050 269 155 -512
2019-03-18 14:54:41 GMT 49.653763 9.349438 12,100 269 152 -320
2019-03-18 14:54:38 GMT 49.653873 9.353374 12,100 269 150 -320
2019-03-18 14:54:33 GMT 49.653946 9.358039 12,100 269 145 -192
2019-03-18 14:54:30 GMT 49.654015 9.361614 12,125 268 139 -256
2019-03-18 14:54:27 GMT 49.654129 9.364616 12,150 268 137 -256
2019-03-18 14:54:22 GMT 49.654202 9.368888 12,125 268 133 576
2019-03-18 14:54:17 GMT 49.654339 9.373639 12,050 268 131 640
2019-03-18 14:54:13 GMT 49.654617 9.382176 11,950 267 128 576
2019-03-18 14:54:09 GMT 49.654617 9.382176 11,900 266 126 1024
2019-03-18 14:54:06 GMT 49.654713 9.384922 11,925 267 125 576
2019-03-18 14:54:02 GMT 49.654991 9.391158 11,725 267 124 896
2019-03-18 14:53:58 GMT 49.654991 9.391158 11,800 267 124 896
2019-03-18 14:53:55 GMT 49.655083 9.393904 11,725 267 125 960
2019-03-18 14:53:51 GMT 49.655228 9.397503 11,700 267 125 960
2019-03-18 14:53:47 GMT 49.655411 9.402144 11,650 267 125 960
2019-03-18 14:53:44 GMT 49.655457 9.403357 11,625 267 125 960
2019-03-18 14:53:41 GMT 49.655548 9.405887 11,575 266 125 1024
2019-03-18 14:53:36 GMT 49.655830 9.411869 11,450 267 126 1024
2019-03-18 14:53:31 GMT 49.656006 9.415355 11,375 266 127 896
2019-03-18 14:53:24 GMT 49.656326 9.421933 11,200 267 129 960
2019-03-18 14:53:21 GMT 49.656433 9.424636 11,200 267 129 1024
2019-03-18 14:53:14 GMT 49.656738 9.431618 11,075 267 130 960
2019-03-18 14:53:10 GMT 49.656853 9.434658 11,025 267 130 832
2019-03-18 14:53:03 GMT 49.657104 9.441303 10,975 267 129 448
2019-03-18 14:53:00 GMT 49.657227 9.443937 10,900 267 127 384
2019-03-18 14:52:53 GMT 49.657459 9.449653 10,875 266 126 512
2019-03-18 14:52:49 GMT 49.657642 9.453216 10,850 266 124 384
2019-03-18 14:52:45 GMT 49.657837 9.457349 10,375 265 121 832
2019-03-18 14:52:42 GMT 49.657970 9.459600 10,725 264 121 896
2019-03-18 14:52:39 GMT 49.658157 9.462346 10,700 264 121 832
2019-03-18 14:52:33 GMT 49.658844 9.471154 10,600 262 120 960
2019-03-18 14:52:29 GMT 49.658844 9.471154 10,600 262 120 1024
2019-03-18 14:52:25 GMT 49.659740 9.477935 10,425 258 121 960
2019-03-18 14:52:21 GMT 49.659740 9.477935 10,400 255 120 960
2019-03-18 14:52:18 GMT 49.660126 9.479972 10,375 255 120 960
2019-03-18 14:52:15 GMT 49.660721 9.483225 10,325 256 119 960
2019-03-18 14:52:11 GMT 49.661137 9.485804 10,275 256 118 896
2019-03-18 14:52:08 GMT 49.661602 9.488550 10,175 257 117 896
2019-03-18 14:52:03 GMT 49.662323 9.493055 10,125 257 117 960
2019-03-18 14:52:00 GMT 49.662643 9.495006 10,075 259 115 896
2019-03-18 14:51:57 GMT 49.663139 9.497978 9,850 258 116 832
2019-03-18 14:51:50 GMT 49.663879 9.503174 9,925 258 116 832
2019-03-18 14:51:45 GMT 49.664383 9.506571 9,850 259 116 832
2019-03-18 14:51:39 GMT 49.665092 9.511859 9,750 260 114 832
2019-03-18 14:51:36 GMT 49.665482 9.514666 9,725 259 115 832
2019-03-18 14:51:29 GMT 49.666214 9.520665 9,600 259 115 832
2019-03-18 14:51:24 GMT 49.666584 9.523588 9,575 260 114 768
2019-03-18 14:51:17 GMT 49.667374 9.529749 9,425 259 114 896
2019-03-18 14:51:14 GMT 49.668320 9.536856 9,275 259 114 832
2019-03-18 14:51:09 GMT 49.668320 9.536856 9,325 258 113 896
2019-03-18 14:51:05 GMT 49.668633 9.539251 9,275 258 113 896
2019-03-18 14:51:02 GMT 49.668961 9.541481 9,250 258 113 960
2019-03-18 14:50:58 GMT 49.669373 9.544156 8,850 254 113 896
2019-03-18 14:50:54 GMT 49.669922 9.547770 9,025 256 114 1024
2019-03-18 14:50:48 GMT 49.670792 9.552685 8,975 254 114 896
2019-03-18 14:50:45 GMT 49.671329 9.555507 8,925 254 114 768
2019-03-18 14:50:37 GMT 49.672401 9.561075 8,825 254 113 768
2019-03-18 14:50:33 GMT 49.672958 9.564044 8,525 254 113 896
2019-03-18 14:50:27 GMT 49.673950 9.569236 8,675 255 113 960
2019-03-18 14:50:22 GMT 49.674541 9.572506 8,600 254 112 960
2019-03-18 14:50:15 GMT 49.675755 9.578668 8,475 254 112 960
2019-03-18 14:50:11 GMT 49.677246 9.586366 8,375 253 113 896
2019-03-18 14:50:04 GMT 49.677246 9.586366 8,300 253 113 1088
2019-03-18 14:50:01 GMT 49.679199 9.595964 7,900 253 113 896
2019-03-18 14:49:53 GMT 49.679199 9.595964 8,100 253 113 896
2019-03-18 14:49:50 GMT 49.679523 9.597448 8,075 253 113 832
2019-03-18 14:49:42 GMT 49.680725 9.603424 7,950 253 113 1024
2019-03-18 14:49:38 GMT 49.681385 9.606430 7,875 253 113 896
2019-03-18 14:49:31 GMT 49.682602 9.612314 7,750 252 113 896
2019-03-18 14:49:27 GMT 49.683105 9.614627 7,700 252 113 832
2019-03-18 14:49:19 GMT 49.684753 9.622216 7,600 252 112 512
2019-03-18 14:49:16 GMT 49.684982 9.623445 7,600 252 111 576
2019-03-18 14:49:10 GMT 49.686600 9.630927 7,500 252 111 768
2019-03-18 14:49:06 GMT 49.686600 9.630927 7,500 253 110 768
2019-03-18 14:48:59 GMT 49.688370 9.639241 7,375 253 110 832
2019-03-18 14:48:55 GMT 49.688370 9.639241 7,325 253 110 896
2019-03-18 14:48:50 GMT 49.689331 9.643972 7,225 253 111 960
2019-03-18 14:48:44 GMT 49.689999 9.647110 7,150 253 111 1024
2019-03-18 14:48:41 GMT 49.690521 9.649971 7,050 254 111 1024
2019-03-18 14:48:34 GMT 49.691528 9.655175 6,975 255 113 1024
2019-03-18 14:48:30 GMT 49.692093 9.658022 6,925 254 112 960
2019-03-18 14:48:23 GMT 49.693130 9.663777 6,800 255 114 960
2019-03-18 14:48:20 GMT 49.693680 9.666957 6,700 255 118 1024
2019-03-18 14:48:13 GMT 49.694550 9.671944 6,575 256 115 1088
2019-03-18 14:48:07 GMT 49.695328 9.676208 6,475 255 117 960
2019-03-18 14:48:02 GMT 49.696236 9.681108 6,400 255 118 896
2019-03-18 14:47:56 GMT 49.696976 9.685243 6,250 254 119 1088
2019-03-18 14:47:49 GMT 49.698006 9.690684 6,200 254 119 1024
2019-03-18 14:47:46 GMT 49.698517 9.693356 6,150 254 119 1024
2019-03-18 14:47:39 GMT 49.699680 9.699146 6,025 252 121 896
2019-03-18 14:47:35 GMT 49.700317 9.702156 5,975 249 121 960
2019-03-18 14:47:25 GMT 49.702240 9.710252 5,825 249 121 832
2019-03-18 14:47:19 GMT 49.703842 9.716251 5,725 248 120 768
2019-03-18 14:47:15 GMT 49.704437 9.718419 5,675 246 120 768
2019-03-18 14:47:08 GMT 49.706337 9.724533 5,575 243 119 768
2019-03-18 14:47:05 GMT 49.707138 9.726731 5,525 241 119 704
2019-03-18 14:47:01 GMT 49.708015 9.729062 5,500 227 119 576
2019-03-18 14:46:54 GMT 49.710297 9.734176 5,400 233 119 640
2019-03-18 14:46:46 GMT 49.713547 9.739380 5,325 222 118 704
2019-03-18 14:46:43 GMT 49.714325 9.740392 5,275 221 113 576
2019-03-18 14:46:33 GMT 49.718582 9.746135 5,150 221 113 576
2019-03-18 14:46:23 GMT 49.726685 9.756727 4,850 228 122 1408
2019-03-18 14:46:12 GMT 49.726685 9.756727 4,950 221 108 1024
2019-03-18 14:46:02 GMT 49.730778 9.762243 4,600 223 110 960
2019-03-18 14:45:51 GMT 49.738815 9.773929 4,550 228 122 1408
2019-03-18 14:45:40 GMT 49.738815 9.773929 4,425 226 114 1152
2019-03-18 14:45:32 GMT 49.741974 9.778988 4,200 227 117 1088
2019-03-18 14:45:20 GMT 49.746559 9.786591 3,900 228 135 1664
2019-03-18 14:45:10 GMT 49.750191 9.792678 3,600 228 135 1664
2019-03-18 14:44:57 GMT 49.755798 9.802045 3,250 227 150 1600
2019-03-18 14:44:49 GMT 49.760101 9.808695 3,200 225 150 128
2019-03-18 14:44:39 GMT 49.765640 9.816356 3,200 214 137 -128
2019-03-18 14:44:28 GMT 49.771420 9.822594 3,200 211 134 64
2019-03-18 14:44:16 GMT 49.777378 9.827271 3,075 202 134 704
2019-03-18 14:44:08 GMT 49.782356 9.829794 2,950 195 135 896
2019-03-18 14:44:05 GMT 49.783985 9.830314 2,925 192 135 832
2019-03-18 14:43:55 GMT 49.790405 9.831607 2,800 183 136 640
2019-03-18 14:43:48 GMT 49.795067 9.831873 2,700 182 135 704
2019-03-18 14:43:42 GMT 49.798138 9.832096 2,675 183 134 640
2019-03-18 14:43:37 GMT 49.803398 9.832467 2,550 184 132 704
2019-03-18 14:43:26 GMT 49.808121 9.833125 2,475 187 129 576
2019-03-18 14:43:23 GMT 49.809963 9.833432 2,450 188 128 640
2019-03-18 14:43:16 GMT 49.813919 9.834545 2,375 194 123 576
2019-03-18 14:43:13 GMT 49.815948 9.835293 2,350 197 120 832
2019-03-18 14:43:05 GMT 49.819885 9.837751 2,225 211 119 1024
2019-03-18 14:42:59 GMT 49.822392 9.840632 2,175 222 116 960
2019-03-18 14:42:55 GMT 49.823837 9.842637 2,075 223 116 896
2019-03-18 14:42:50 GMT 49.826385 9.846352 1,950 223 114 1152
2019-03-18 14:42:43 GMT 49.828400 9.849317 1,900 231 111 704

Making use of Plane Finder data

You are free to use the raw flight data, aircraft information and images provided in this report for your own purposes provided the data is correctly attributed to Plane Finder. We ask that you please credit Plane Finder and link to planefinder.net in close proximity to the content.

Optionally one of the following logos (no smaller then 150x24px) can be used and must link to planefinder.net

Embedding the Plane Finder map

You are welcome to embed the Plane Finder playback map on your website to offer visitors a more interactive experience. We suggest using the following HTML code:

<iframe src="//planefinder.net/data/report/DEPLD-D-EPLD-7700-squawk-2019-03-18/map" width="800" height="600" seamless="seamless"></iframe>

Where our data comes from

Plane Finder has a global network of data feeds and antenna radars that receive data broadcast directly from aircraft. The primary technologies used are ADS-B and MLAT. We also show feeds from the FAA and a FLARM glider feed.

Click here to find out more about the Plane Finder network.

How we collect our data